Observation data for Estelline on 08/15/2019      Previous  Date       Current Mesonet Observations  Soil Data  Daily Summary Page  Observations in Plain Language
KES1 150500Z 12006KT 28/18 A3009 RMK A01 T02770183  RH  056%=      5-min Rain = 0
KES1 150501Z 12007KT 28/18 A3009 RMK A01 T02760183  RH  057%=      5-min Rain = 0
KES1 150502Z 12007KT 28/18 A3009 RMK A01 T02760183  RH  057%=      5-min Rain = 0
KES1 150503Z 12006KT 28/18 A301 RMK A01 T02760183  RH  057%=      5-min Rain = 0
KES1 150504Z 12006KT 28/18 A301 RMK A01 T02760183  RH  057%=      5-min Rain = 0
KES1 150505Z 12007KT 28/18 A301 RMK A01 T02750182  RH  057%=      5-min Rain = 0
KES1 150506Z 12006KT 28/18 A301 RMK A01 T02750182  RH  057%=      5-min Rain = 0
KES1 150507Z 12007KT 28/18 A301 RMK A01 T02760183  RH  057%=      5-min Rain = 0
KES1 150508Z 12007KT 28/18 A301 RMK A01 T02760183  RH  057%=      5-min Rain = 0
KES1 150509Z 12007KT 28/18 A301 RMK A01 T02760182  RH  057%=      5-min Rain = 0
KES1 150510Z 12006KT 28/18 A301 RMK A01 T02770183  RH  057%=      5-min Rain = 0
KES1 150511Z 12007KT 28/18 A301 RMK A01 T02770182  RH  056%=      5-min Rain = 0
KES1 150512Z 12006KT 28/18 A301 RMK A01 T02770182  RH  056%=      5-min Rain = 0
KES1 150513Z 12006KT 28/18 A301 RMK A01 T02770182  RH  056%=      5-min Rain = 0
KES1 150514Z 12007KT 28/18 A301 RMK A01 T02770182  RH  056%=      5-min Rain = 0
KES1 150515Z 12007KT 28/18 A301 RMK A01 T02770182  RH  056%=      5-min Rain = 0
KES1 150516Z 12007KT 28/18 A301 RMK A01 T02770181  RH  056%=      5-min Rain = 0
KES1 150517Z 12008KT 28/18 A301 RMK A01 T02770181  RH  056%=      5-min Rain = 0
KES1 150518Z 12007KT 28/18 A301 RMK A01 T02770181  RH  056%=      5-min Rain = 0
KES1 150519Z 12007KT 28/18 A301 RMK A01 T02770181  RH  056%=      5-min Rain = 0
KES1 150520Z 12007KT 28/18 A301 RMK A01 T02780180  RH  055%=      5-min Rain = 0
KES1 150521Z 12007KT 28/18 A301 RMK A01 T02780181  RH  055%=      5-min Rain = 0
KES1 150522Z 12008KT 28/18 A301 RMK A01 T02780181  RH  055%=      5-min Rain = 0
KES1 150523Z 12007KT 28/18 A301 RMK A01 T02790180  RH  055%=      5-min Rain = 0
KES1 150524Z 12008KT 28/18 A301 RMK A01 T02790180  RH  055%=      5-min Rain = 0
KES1 150525Z 12008KT 28/18 A301 RMK A01 T02790180  RH  055%=      5-min Rain = 0
KES1 150526Z 12008KT 28/18 A301 RMK A01 T02800180  RH  055%=      5-min Rain = 0
KES1 150527Z 12007KT 28/18 A301 RMK A01 T02800180  RH  055%=      5-min Rain = 0
KES1 150528Z 12008KT 28/18 A301 RMK A01 T02800181  RH  055%=      5-min Rain = 0
KES1 150529Z 12009KT 28/18 A301 RMK A01 T02790181  RH  055%=      5-min Rain = 0
KES1 150530Z 12009KT 28/18 A301 RMK A01 T02780182  RH  056%=      5-min Rain = 0
KES1 150531Z 12009KT 28/18 A301 RMK A01 T02780182  RH  056%=      5-min Rain = 0
KES1 150532Z 12008KT 28/18 A301 RMK A01 T02770182  RH  056%=      5-min Rain = 0
KES1 150533Z 13008KT 28/18 A301 RMK A01 T02770182  RH  057%=      5-min Rain = 0
KES1 150534Z 12008KT 28/18 A301 RMK A01 T02760183  RH  057%=      5-min Rain = 0
KES1 150535Z 12008KT 28/18 A301 RMK A01 T02750183  RH  057%=      5-min Rain = 0
KES1 150536Z 12009KT 27/18 A301 RMK A01 T02740183  RH  058%=      5-min Rain = 0
KES1 150537Z 12008KT 27/18 A301 RMK A01 T02740184  RH  058%=      5-min Rain = 0
KES1 150538Z 12009KT 27/18 A301 RMK A01 T02730183  RH  058%=      5-min Rain = 0
KES1 150539Z 12009KT 27/18 A301 RMK A01 T02730183  RH  058%=      5-min Rain = 0
KES1 150540Z 12007KT 27/18 A301 RMK A01 T02730183  RH  058%=      5-min Rain = 0
KES1 150541Z 12008KT 27/18 A301 RMK A01 T02730184  RH  058%=      5-min Rain = 0
KES1 150542Z 12008KT 27/18 A301 RMK A01 T02720183  RH  058%=      5-min Rain = 0
KES1 150543Z 13008KT 27/18 A301 RMK A01 T02720184  RH  058%=      5-min Rain = 0
KES1 150544Z 12008KT 27/18 A301 RMK A01 T02720184  RH  058%=      5-min Rain = 0
KES1 150545Z 13008KT 27/18 A301 RMK A01 T02720184  RH  059%=      5-min Rain = 0
KES1 150546Z 12008KT 27/18 A301 RMK A01 T02720184  RH  059%=      5-min Rain = 0
KES1 150547Z 12008KT 27/18 A301 RMK A01 T02710183  RH  059%=      5-min Rain = 0
KES1 150548Z 12007KT 27/18 A301 RMK A01 T02710184  RH  059%=      5-min Rain = 0
KES1 150549Z 12007KT 27/18 A301 RMK A01 T02710184  RH  059%=      5-min Rain = 0
KES1 150550Z 13008KT 27/18 A301 RMK A01 T02710183  RH  059%=      5-min Rain = 0
KES1 150551Z 13007KT 27/18 A301 RMK A01 T02710183  RH  059%=      5-min Rain = 0
KES1 150552Z 13008KT 27/18 A301 RMK A01 T02710183  RH  058%=      5-min Rain = 0
KES1 150553Z 13008KT 27/18 A301 RMK A01 T02720183  RH  058%=      5-min Rain = 0
KES1 150554Z 12008KT 27/18 A301 RMK A01 T02720183  RH  058%=      5-min Rain = 0
KES1 150555Z 13008KT 27/18 A301 RMK A01 T02720184  RH  059%=      5-min Rain = 0
KES1 150556Z 12007KT 27/18 A301 RMK A01 T02710184  RH  059%=      5-min Rain = 0
KES1 150557Z 12008KT 27/18 A301 RMK A01 T02710184  RH  059%=      5-min Rain = 0
KES1 150558Z 13008KT 27/18 A301 RMK A01 T02700184  RH  059%=      5-min Rain = 0
KES1 150559Z 13007KT 27/18 A301 RMK A01 T02700184  RH  059%=      5-min Rain = 0
KES1 150600Z 13007KT 27/19 A301 RMK A01 T02700185  RH  059%=      5-min Rain = 0
KES1 150601Z 13008KT 27/18 A301 RMK A01 T02700184  RH  060%=      5-min Rain = 0
KES1 150602Z 13008KT 27/19 A301 RMK A01 T02700185  RH  060%=      5-min Rain = 0
KES1 150603Z 13008KT 27/19 A301 RMK A01 T02700185  RH  060%=      5-min Rain = 0
KES1 150604Z 13007KT 27/19 A301 RMK A01 T02700185  RH  060%=      5-min Rain = 0
KES1 150605Z 13007KT 27/19 A301 RMK A01 T02690185  RH  060%=      5-min Rain = 0
KES1 150606Z 13007KT 27/19 A301 RMK A01 T02690185  RH  060%=      5-min Rain = 0
KES1 150607Z 13007KT 27/19 A301 RMK A01 T02680185  RH  060%=      5-min Rain = 0
KES1 150608Z 12007KT 27/19 A301 RMK A01 T02690185  RH  060%=      5-min Rain = 0
KES1 150609Z 13007KT 27/19 A301 RMK A01 T02680185  RH  060%=      5-min Rain = 0
KES1 150610Z 13007KT 27/19 A301 RMK A01 T02680186  RH  061%=      5-min Rain = 0
KES1 150611Z 13007KT 27/19 A301 RMK A01 T02680186  RH  061%=      5-min Rain = 0
KES1 150612Z 13008KT 27/19 A301 RMK A01 T02680185  RH  061%=      5-min Rain = 0
KES1 150613Z 13007KT 27/19 A301 RMK A01 T02680185  RH  061%=      5-min Rain = 0
KES1 150614Z 13007KT 27/19 A301 RMK A01 T02680185  RH  061%=      5-min Rain = 0
KES1 150615Z 13007KT 27/19 A301 RMK A01 T02680186  RH  061%=      5-min Rain = 0
KES1 150616Z 13008KT 27/19 A301 RMK A01 T02680186  RH  061%=      5-min Rain = 0
KES1 150617Z 13008KT 27/19 A301 RMK A01 T02680186  RH  061%=      5-min Rain = 0
KES1 150618Z 13008KT 27/19 A301 RMK A01 T02690186  RH  060%=      5-min Rain = 0
KES1 150619Z 14008KT 27/19 A301 RMK A01 T02690186  RH  061%=      5-min Rain = 0
KES1 150620Z 14008KT 27/19 A301 RMK A01 T02690187  RH  061%=      5-min Rain = 0
KES1 150621Z 14007KT 27/19 A301 RMK A01 T02680187  RH  061%=      5-min Rain = 0
KES1 150622Z 14007KT 27/19 A3009 RMK A01 T02680187  RH  061%=      5-min Rain = 0
KES1 150623Z 14007KT 27/19 A3009 RMK A01 T02670188  RH  062%=      5-min Rain = 0
KES1 150624Z 14007KT 27/19 A3009 RMK A01 T02670188  RH  062%=      5-min Rain = 0
KES1 150625Z 14007KT 27/19 A3009 RMK A01 T02670188  RH  062%=      5-min Rain = 0
KES1 150626Z 14008KT 27/19 A3009 RMK A01 T02670188  RH  062%=      5-min Rain = 0
KES1 150627Z 14008KT 27/19 A301 RMK A01 T02660188  RH  062%=      5-min Rain = 0
KES1 150628Z 14007KT 27/19 A301 RMK A01 T02660189  RH  062%=      5-min Rain = 0
KES1 150629Z 14007KT 27/19 A301 RMK A01 T02660189  RH  063%=      5-min Rain = 0
KES1 150630Z 14007KT 27/19 A301 RMK A01 T02660189  RH  063%=      5-min Rain = 0
KES1 150631Z 14007KT 27/19 A301 RMK A01 T02660189  RH  063%=      5-min Rain = 0
KES1 150632Z 14007KT 27/19 A301 RMK A01 T02650190  RH  063%=      5-min Rain = 0
KES1 150633Z 14007KT 27/19 A301 RMK A01 T02650189  RH  063%=      5-min Rain = 0
KES1 150634Z 14007KT 26/19 A301 RMK A01 T02640189  RH  063%=      5-min Rain = 0
KES1 150635Z 14007KT 26/19 A301 RMK A01 T02640189  RH  063%=      5-min Rain = 0
KES1 150636Z 14006KT 27/19 A3009 RMK A01 T02650190  RH  064%=      5-min Rain = 0
KES1 150637Z 14008KT 26/19 A3009 RMK A01 T02640190  RH  064%=      5-min Rain = 0
KES1 150638Z 14008KT 26/19 A3009 RMK A01 T02640190  RH  064%=      5-min Rain = 0
KES1 150639Z 14007KT 26/19 A3009 RMK A01 T02640190  RH  064%=      5-min Rain = 0
KES1 150640Z 14007KT 26/19 A3009 RMK A01 T02640190  RH  064%=      5-min Rain = 0
KES1 150641Z 14007KT 26/19 A3009 RMK A01 T02640191  RH  064%=      5-min Rain = 0
KES1 150642Z 14007KT 26/19 A3009 RMK A01 T02640191  RH  064%=      5-min Rain = 0
KES1 150643Z 14007KT 26/19 A3009 RMK A01 T02640191  RH  064%=      5-min Rain = 0
KES1 150644Z 13008KT 27/19 A3009 RMK A01 T02650191  RH  064%=      5-min Rain = 0
KES1 150645Z 14008KT 27/19 A3009 RMK A01 T02650191  RH  064%=      5-min Rain = 0
KES1 150646Z 13008KT 27/19 A3009 RMK A01 T02650191  RH  064%=      5-min Rain = 0
KES1 150647Z 14008KT 27/19 A3009 RMK A01 T02660191  RH  064%=      5-min Rain = 0
KES1 150648Z 14007KT 27/19 A3009 RMK A01 T02660191  RH  063%=      5-min Rain = 0
KES1 150649Z 14008KT 27/19 A3009 RMK A01 T02660191  RH  064%=      5-min Rain = 0
KES1 150650Z 13007KT 27/19 A3009 RMK A01 T02660192  RH  064%=      5-min Rain = 0
KES1 150651Z 13007KT 27/19 A3009 RMK A01 T02660192  RH  064%=      5-min Rain = 0
KES1 150652Z 14007KT 27/19 A3009 RMK A01 T02650192  RH  064%=      5-min Rain = 0
KES1 150653Z 14007KT 27/19 A3009 RMK A01 T02650192  RH  064%=      5-min Rain = 0
KES1 150654Z 14007KT 27/19 A3009 RMK A01 T02650192  RH  064%=      5-min Rain = 0
KES1 150655Z 13007KT 27/19 A3009 RMK A01 T02650192  RH  064%=      5-min Rain = 0
KES1 150656Z 13007KT 27/19 A3009 RMK A01 T02650192  RH  064%=      5-min Rain = 0
KES1 150657Z 13007KT 26/19 A3009 RMK A01 T02640192  RH  064%=      5-min Rain = 0
KES1 150658Z 13008KT 26/19 A3009 RMK A01 T02640192  RH  064%=      5-min Rain = 0
KES1 150659Z 13007KT 26/19 A3009 RMK A01 T02640192  RH  065%=      5-min Rain = 0
KES1 150700Z 13008KT 26/19 A3009 RMK A01 T02640193  RH  065%=      5-min Rain = 0
KES1 150701Z 13008KT 26/19 A3009 RMK A01 T02640193  RH  065%=      5-min Rain = 0
KES1 150702Z 13008KT 27/19 A3009 RMK A01 T02650193  RH  065%=      5-min Rain = 0
KES1 150703Z 13008KT 26/19 A3009 RMK A01 T02640193  RH  065%=      5-min Rain = 0
KES1 150704Z 13008KT 27/19 A3009 RMK A01 T02650193  RH  065%=      5-min Rain = 0
KES1 150705Z 14008KT 27/19 A3009 RMK A01 T02650193  RH  065%=      5-min Rain = 0
KES1 150706Z 14008KT 27/19 A3009 RMK A01 T02650194  RH  065%=      5-min Rain = 0
KES1 150707Z 14007KT 27/19 A3009 RMK A01 T02650193  RH  065%=      5-min Rain = 0
KES1 150708Z 14007KT 27/19 A3009 RMK A01 T02660194  RH  065%=      5-min Rain = 0
KES1 150709Z 15008KT 27/19 A3009 RMK A01 T02650194  RH  065%=      5-min Rain = 0
KES1 150710Z 15007KT 27/19 A3009 RMK A01 T02650194  RH  065%=      5-min Rain = 0
KES1 150711Z 15007KT 27/19 A3009 RMK A01 T02650194  RH  065%=      5-min Rain = 0
KES1 150712Z 14007KT 26/19 A3009 RMK A01 T02640194  RH  065%=      5-min Rain = 0
KES1 150713Z 14008KT 26/19 A3009 RMK A01 T02640194  RH  066%=      5-min Rain = 0
KES1 150714Z 14007KT 26/20 A3009 RMK A01 T02640195  RH  066%=      5-min Rain = 0
KES1 150715Z 14007KT 26/20 A3009 RMK A01 T02640195  RH  066%=      5-min Rain = 0
KES1 150716Z 14008KT 26/20 A3009 RMK A01 T02630195  RH  066%=      5-min Rain = 0
KES1 150717Z 14006KT 26/19 A3009 RMK A01 T02630194  RH  066%=      5-min Rain = 0
KES1 150718Z 14006KT 26/20 A3009 RMK A01 T02630195  RH  066%=      5-min Rain = 0
KES1 150719Z 14007KT 26/20 A3009 RMK A01 T02620195  RH  066%=      5-min Rain = 0
KES1 150720Z 14008KT 26/20 A3009 RMK A01 T02620195  RH  066%=      5-min Rain = 0
KES1 150721Z 14006KT 26/20 A3009 RMK A01 T02620195  RH  067%=      5-min Rain = 0
KES1 150722Z 14008KT 26/20 A3009 RMK A01 T02610195  RH  067%=      5-min Rain = 0
KES1 150723Z 14007KT 26/20 A3009 RMK A01 T02610195  RH  067%=      5-min Rain = 0
KES1 150724Z 14007KT 26/20 A3009 RMK A01 T02610195  RH  067%=      5-min Rain = 0
KES1 150725Z 14006KT 26/20 A3009 RMK A01 T02610195  RH  067%=      5-min Rain = 0
KES1 150726Z 14006KT 26/20 A3009 RMK A01 T02610195  RH  067%=      5-min Rain = 0
KES1 150727Z 14006KT 26/20 A3009 RMK A01 T02600195  RH  067%=      5-min Rain = 0
KES1 150728Z 14006KT 26/20 A3009 RMK A01 T02600195  RH  067%=      5-min Rain = 0
KES1 150729Z 14006KT 26/20 A3009 RMK A01 T02600195  RH  068%=      5-min Rain = 0
KES1 150730Z 14007KT 26/20 A3009 RMK A01 T02600196  RH  068%=      5-min Rain = 0
KES1 150731Z 14007KT 26/20 A3009 RMK A01 T02600196  RH  068%=      5-min Rain = 0
KES1 150732Z 15006KT 26/20 A3009 RMK A01 T02600195  RH  068%=      5-min Rain = 0
KES1 150733Z 15007KT 26/20 A3009 RMK A01 T02590195  RH  068%=      5-min Rain = 0
KES1 150734Z 15007KT 26/20 A3009 RMK A01 T02590195  RH  068%=      5-min Rain = 0
KES1 150735Z 15007KT 26/20 A3009 RMK A01 T02590195  RH  068%=      5-min Rain = 0
KES1 150736Z 14007KT 26/20 A3009 RMK A01 T02580195  RH  068%=      5-min Rain = 0
KES1 150737Z 14007KT 26/20 A3009 RMK A01 T02580195  RH  068%=      5-min Rain = 0
KES1 150738Z 15007KT 26/20 A3009 RMK A01 T02580195  RH  068%=      5-min Rain = 0
KES1 150739Z 15007KT 26/20 A3009 RMK A01 T02580195  RH  068%=      5-min Rain = 0
KES1 150740Z 14007KT 26/20 A3009 RMK A01 T02580196  RH  068%=      5-min Rain = 0
KES1 150741Z 14007KT 26/20 A3009 RMK A01 T02580195  RH  068%=      5-min Rain = 0
KES1 150742Z 15007KT 26/20 A3009 RMK A01 T02580196  RH  068%=      5-min Rain = 0
KES1 150743Z 14007KT 26/20 A3009 RMK A01 T02570195  RH  069%=      5-min Rain = 0
KES1 150744Z 14007KT 26/20 A3009 RMK A01 T02570195  RH  069%=      5-min Rain = 0
KES1 150745Z 14006KT 26/20 A3009 RMK A01 T02570196  RH  069%=      5-min Rain = 0
KES1 150746Z 14007KT 26/20 A3009 RMK A01 T02570195  RH  069%=      5-min Rain = 0
KES1 150747Z 14007KT 26/20 A3009 RMK A01 T02570195  RH  069%=      5-min Rain = 0
KES1 150748Z 14008KT 26/20 A3009 RMK A01 T02570195  RH  069%=      5-min Rain = 0
KES1 150749Z 14006KT 26/20 A3008 RMK A01 T02570195  RH  069%=      5-min Rain = 0
KES1 150750Z 14007KT 26/20 A3008 RMK A01 T02570196  RH  069%=      5-min Rain = 0
KES1 150751Z 14007KT 26/20 A3008 RMK A01 T02570196  RH  069%=      5-min Rain = 0
KES1 150752Z 14006KT 26/20 A3008 RMK A01 T02570196  RH  069%=      5-min Rain = 0
KES1 150753Z 14007KT 26/20 A3008 RMK A01 T02560195  RH  069%=      5-min Rain = 0
KES1 150754Z 14006KT 26/20 A3008 RMK A01 T02560195  RH  069%=      5-min Rain = 0
KES1 150755Z 14007KT 26/20 A3008 RMK A01 T02560195  RH  069%=      5-min Rain = 0
KES1 150756Z 14006KT 26/20 A3008 RMK A01 T02560195  RH  069%=      5-min Rain = 0
KES1 150757Z 14006KT 26/20 A3008 RMK A01 T02560196  RH  069%=      5-min Rain = 0
KES1 150758Z 14006KT 26/20 A3008 RMK A01 T02550195  RH  070%=      5-min Rain = 0
KES1 150759Z 14006KT 26/20 A3008 RMK A01 T02550195  RH  070%=      5-min Rain = 0
KES1 150800Z 14006KT 26/20 A3008 RMK A01 T02550196  RH  070%=      5-min Rain = 0
KES1 150801Z 14005KT 26/20 A3008 RMK A01 T02550196  RH  070%=      5-min Rain = 0
KES1 150802Z 14006KT 26/20 A3008 RMK A01 T02550196  RH  070%=      5-min Rain = 0
KES1 150803Z 15006KT 25/20 A3008 RMK A01 T02540195  RH  070%=      5-min Rain = 0
KES1 150804Z 15007KT 25/20 A3008 RMK A01 T02540196  RH  070%=      5-min Rain = 0
KES1 150805Z 15007KT 25/20 A3008 RMK A01 T02540195  RH  070%=      5-min Rain = 0
KES1 150806Z 15006KT 25/20 A3008 RMK A01 T02540196  RH  070%=      5-min Rain = 0
KES1 150807Z 15006KT 25/20 A3008 RMK A01 T02540196  RH  070%=      5-min Rain = 0
KES1 150808Z 15006KT 25/20 A3008 RMK A01 T02540196  RH  070%=      5-min Rain = 0
KES1 150809Z 16006KT 25/20 A3008 RMK A01 T02530195  RH  070%=      5-min Rain = 0
KES1 150810Z 17006KT 25/20 A3008 RMK A01 T02530195  RH  070%=      5-min Rain = 0
KES1 150811Z 17005KT 25/20 A3008 RMK A01 T02530195  RH  070%=      5-min Rain = 0
KES1 150812Z 19004KT 25/20 A3008 RMK A01 T02530195  RH  070%=      5-min Rain = 0
KES1 150813Z 21005KT 25/20 A3008 RMK A01 T02530196  RH  071%=      5-min Rain = 0
KES1 150814Z 19005KT 25/20 A3008 RMK A01 T02510196  RH  071%=      5-min Rain = 0
KES1 150815Z 19005KT 25/20 A3008 RMK A01 T02490195  RH  072%=      5-min Rain = 0
KES1 150816Z 18005KT 25/20 A3008 RMK A01 T02480195  RH  073%=      5-min Rain = 0
KES1 150817Z 18005KT 25/20 A3008 RMK A01 T02470195  RH  073%=      5-min Rain = 0
KES1 150818Z 18005KT 25/20 A3008 RMK A01 T02460195  RH  073%=      5-min Rain = 0
KES1 150819Z 18005KT 25/20 A3008 RMK A01 T02460195  RH  073%=      5-min Rain = 0
KES1 150820Z 18004KT 25/20 A3008 RMK A01 T02450195  RH  074%=      5-min Rain = 0
KES1 150821Z 19004KT 25/20 A3008 RMK A01 T02450195  RH  074%=      5-min Rain = 0
KES1 150822Z 19004KT 25/20 A3008 RMK A01 T02450196  RH  074%=      5-min Rain = 0
KES1 150823Z 19004KT 24/20 A3008 RMK A01 T02440195  RH  074%=      5-min Rain = 0
KES1 150824Z 19004KT 24/20 A3008 RMK A01 T02440195  RH  074%=      5-min Rain = 0
KES1 150825Z 18005KT 24/20 A3008 RMK A01 T02440195  RH  074%=      5-min Rain = 0
KES1 150826Z 18005KT 24/20 A3008 RMK A01 T02440195  RH  074%=      5-min Rain = 0
KES1 150827Z 19004KT 24/20 A3008 RMK A01 T02430195  RH  074%=      5-min Rain = 0
KES1 150828Z 18005KT 24/20 A3008 RMK A01 T02430195  RH  074%=      5-min Rain = 0
KES1 150829Z 18005KT 24/20 A3008 RMK A01 T02430195  RH  074%=      5-min Rain = 0
KES1 150830Z 18005KT 24/20 A3008 RMK A01 T02430195  RH  074%=      5-min Rain = 0
KES1 150831Z 18005KT 24/20 A3008 RMK A01 T02430195  RH  074%=      5-min Rain = 0
KES1 150832Z 18006KT 24/20 A3008 RMK A01 T02430195  RH  074%=      5-min Rain = 0
KES1 150833Z 18006KT 24/20 A3008 RMK A01 T02430195  RH  074%=      5-min Rain = 0
KES1 150834Z 18006KT 24/19 A3008 RMK A01 T02430194  RH  074%=      5-min Rain = 0
KES1 150835Z 17006KT 24/19 A3008 RMK A01 T02430194  RH  074%=      5-min Rain = 0
KES1 150836Z 18006KT 24/19 A3008 RMK A01 T02430194  RH  074%=      5-min Rain = 0
KES1 150837Z 17006KT 24/19 A3008 RMK A01 T02430194  RH  074%=      5-min Rain = 0
KES1 150838Z 17007KT 24/19 A3008 RMK A01 T02430194  RH  074%=      5-min Rain = 0
KES1 150839Z 17006KT 24/20 A3008 RMK A01 T02440195  RH  074%=      5-min Rain = 0
KES1 150840Z 17006KT 24/20 A3008 RMK A01 T02440195  RH  074%=      5-min Rain = 0
KES1 150841Z 17006KT 24/20 A3008 RMK A01 T02440195  RH  074%=      5-min Rain = 0
KES1 150842Z 17006KT 24/20 A3008 RMK A01 T02440195  RH  074%=      5-min Rain = 0
KES1 150843Z 17006KT 24/20 A3008 RMK A01 T02440195  RH  074%=      5-min Rain = 0
KES1 150844Z 17006KT 24/20 A3008 RMK A01 T02440195  RH  074%=      5-min Rain = 0
KES1 150845Z 17006KT 24/20 A3008 RMK A01 T02440195  RH  074%=      5-min Rain = 0
KES1 150846Z 17005KT 24/20 A3008 RMK A01 T02440195  RH  074%=      5-min Rain = 0
KES1 150847Z 17005KT 25/20 A3008 RMK A01 T02450195  RH  074%=      5-min Rain = 0
KES1 150848Z 18005KT 25/20 A3008 RMK A01 T02450195  RH  074%=      5-min Rain = 0
KES1 150849Z 17005KT 25/20 A3008 RMK A01 T02450195  RH  074%=      5-min Rain = 0
KES1 150850Z 17005KT 25/20 A3007 RMK A01 T02450196  RH  074%=      5-min Rain = 0
KES1 150851Z 17006KT 24/20 A3007 RMK A01 T02440196  RH  074%=      5-min Rain = 0
KES1 150852Z 18006KT 24/20 A3007 RMK A01 T02440196  RH  074%=      5-min Rain = 0
KES1 150853Z 17006KT 24/20 A3007 RMK A01 T02440196  RH  075%=      5-min Rain = 0
KES1 150854Z 18006KT 24/20 A3007 RMK A01 T02440196  RH  075%=      5-min Rain = 0
KES1 150855Z 18005KT 24/20 A3007 RMK A01 T02430196  RH  075%=      5-min Rain = 0
KES1 150856Z 18005KT 24/20 A3007 RMK A01 T02430196  RH  075%=      5-min Rain = 0
KES1 150857Z 18005KT 24/20 A3007 RMK A01 T02430196  RH  075%=      5-min Rain = 0
KES1 150858Z 19005KT 24/20 A3007 RMK A01 T02420196  RH  075%=      5-min Rain = 0
KES1 150859Z 19005KT 24/20 A3007 RMK A01 T02420196  RH  076%=      5-min Rain = 0
KES1 150900Z 19006KT 24/20 A3007 RMK A01 T02410196  RH  076%=      5-min Rain = 0
KES1 150901Z 18006KT 24/20 A3007 RMK A01 T02410196  RH  076%=      5-min Rain = 0
KES1 150902Z 18005KT 24/20 A3007 RMK A01 T02410196  RH  076%=      5-min Rain = 0
KES1 150903Z 18005KT 24/20 A3007 RMK A01 T02410196  RH  076%=      5-min Rain = 0
KES1 150904Z 18005KT 24/20 A3007 RMK A01 T02400195  RH  076%=      5-min Rain = 0
KES1 150905Z 18005KT 24/20 A3007 RMK A01 T02410195  RH  076%=      5-min Rain = 0
KES1 150906Z 18005KT 24/20 A3007 RMK A01 T02410195  RH  076%=      5-min Rain = 0
KES1 150907Z 18004KT 24/20 A3007 RMK A01 T02410195  RH  076%=      5-min Rain = 0
KES1 150908Z 18005KT 24/20 A3007 RMK A01 T02410195  RH  076%=      5-min Rain = 0
KES1 150909Z 18004KT 24/20 A3007 RMK A01 T02410195  RH  075%=      5-min Rain = 0
KES1 150910Z 18004KT 24/20 A3007 RMK A01 T02400195  RH  076%=      5-min Rain = 0
KES1 150911Z 17005KT 24/19 A3007 RMK A01 T02400194  RH  075%=      5-min Rain = 0
KES1 150912Z 17005KT 24/19 A3007 RMK A01 T02400194  RH  075%=      5-min Rain = 0
KES1 150913Z 17005KT 24/19 A3007 RMK A01 T02400194  RH  075%=      5-min Rain = 0
KES1 150914Z 17005KT 24/19 A3007 RMK A01 T02400194  RH  076%=      5-min Rain = 0
KES1 150915Z 17005KT 24/19 A3007 RMK A01 T02390194  RH  076%=      5-min Rain = 0
KES1 150916Z 16005KT 24/19 A3007 RMK A01 T02390194  RH  076%=      5-min Rain = 0
KES1 150917Z 17005KT 24/19 A3007 RMK A01 T02390193  RH  076%=      5-min Rain = 0
KES1 150918Z 16005KT 24/19 A3006 RMK A01 T02390193  RH  076%=      5-min Rain = 0
KES1 150919Z 16006KT 24/19 A3006 RMK A01 T02390194  RH  076%=      5-min Rain = 0
KES1 150920Z 17005KT 24/19 A3006 RMK A01 T02390194  RH  076%=      5-min Rain = 0
KES1 150921Z 17005KT 24/19 A3006 RMK A01 T02390194  RH  076%=      5-min Rain = 0
KES1 150922Z 17005KT 24/19 A3006 RMK A01 T02390194  RH  076%=      5-min Rain = 0
KES1 150923Z 17005KT 24/19 A3006 RMK A01 T02380194  RH  076%=      5-min Rain = 0
KES1 150924Z 17006KT 24/19 A3006 RMK A01 T02380193  RH  076%=      5-min Rain = 0
KES1 150925Z 17005KT 24/19 A3006 RMK A01 T02390193  RH  076%=      5-min Rain = 0
KES1 150926Z 17005KT 24/19 A3006 RMK A01 T02400193  RH  075%=      5-min Rain = 0
KES1 150927Z 17005KT 24/19 A3006 RMK A01 T02400193  RH  075%=      5-min Rain = 0
KES1 150928Z 17006KT 24/19 A3006 RMK A01 T02410194  RH  075%=      5-min Rain = 0
KES1 150929Z 17005KT 24/19 A3006 RMK A01 T02410193  RH  075%=      5-min Rain = 0
KES1 150930Z 17005KT 24/19 A3006 RMK A01 T02410193  RH  075%=      5-min Rain = 0
KES1 150931Z 17005KT 24/19 A3006 RMK A01 T02410194  RH  075%=      5-min Rain = 0
KES1 150932Z 17005KT 24/19 A3006 RMK A01 T02410194  RH  075%=      5-min Rain = 0
KES1 150933Z 17005KT 24/19 A3006 RMK A01 T02410194  RH  075%=      5-min Rain = 0
KES1 150934Z 16005KT 24/19 A3006 RMK A01 T02400194  RH  075%=      5-min Rain = 0
KES1 150935Z 16005KT 24/19 A3006 RMK A01 T02400194  RH  075%=      5-min Rain = 0
KES1 150936Z 15004KT 24/20 A3006 RMK A01 T02400195  RH  076%=      5-min Rain = 0
KES1 150937Z 15004KT 24/19 A3006 RMK A01 T02390194  RH  076%=      5-min Rain = 0
KES1 150938Z 15004KT 24/19 A3006 RMK A01 T02390194  RH  076%=      5-min Rain = 0
KES1 150939Z 15004KT 24/20 A3006 RMK A01 T02380195  RH  077%=      5-min Rain = 0
KES1 150940Z 15004KT 24/19 A3006 RMK A01 T02370194  RH  077%=      5-min Rain = 0
KES1 150941Z 16004KT 24/20 A3006 RMK A01 T02370195  RH  077%=      5-min Rain = 0
KES1 150942Z 16003KT 24/20 A3006 RMK A01 T02360195  RH  078%=      5-min Rain = 0
KES1 150943Z 16003KT 24/20 A3006 RMK A01 T02360195  RH  078%=      5-min Rain = 0
KES1 150944Z 16003KT 24/20 A3006 RMK A01 T02350195  RH  078%=      5-min Rain = 0
KES1 150945Z 16003KT 24/20 A3007 RMK A01 T02350195  RH  078%=      5-min Rain = 0
KES1 150946Z 16003KT 24/20 A3007 RMK A01 T02350195  RH  078%=      5-min Rain = 0
KES1 150947Z 16002KT 23/20 A3007 RMK A01 T02340195  RH  079%=      5-min Rain = 0
KES1 150948Z 17002KT 23/20 A3007 RMK A01 T02340195  RH  079%=      5-min Rain = 0
KES1 150949Z 17002KT 23/20 A3007 RMK A01 T02340195  RH  079%=      5-min Rain = 0
KES1 150950Z 17002KT 23/20 A3007 RMK A01 T02340195  RH  079%=      5-min Rain = 0
KES1 150951Z 17002KT 23/20 A3007 RMK A01 T02340195  RH  079%=      5-min Rain = 0
KES1 150952Z 17002KT 23/20 A3007 RMK A01 T02340195  RH  079%=      5-min Rain = 0
KES1 150953Z 18002KT 23/20 A3007 RMK A01 T02340195  RH  079%=      5-min Rain = 0
KES1 150954Z 18002KT 23/20 A3007 RMK A01 T02340195  RH  079%=      5-min Rain = 0
KES1 150955Z 19002KT 23/20 A3007 RMK A01 T02340195  RH  079%=      5-min Rain = 0
KES1 150956Z 20002KT 23/20 A3007 RMK A01 T02340195  RH  079%=      5-min Rain = 0
KES1 150957Z 21002KT 23/20 A3007 RMK A01 T02340195  RH  079%=      5-min Rain = 0
KES1 150958Z 23001KT 23/20 A3007 RMK A01 T02330195  RH  079%=      5-min Rain = 0
KES1 150959Z 27001KT 23/20 A3007 RMK A01 T02330195  RH  079%=      5-min Rain = 0
KES1 151000Z 27002KT 23/20 A3007 RMK A01 T02320196  RH  080%=      5-min Rain = 0
KES1 151001Z 27002KT 23/20 A3007 RMK A01 T02310196  RH  081%=      5-min Rain = 0
KES1 151002Z 27002KT 23/20 A3007 RMK A01 T02310196  RH  081%=      5-min Rain = 0
KES1 151003Z 27003KT 23/20 A3007 RMK A01 T02300196  RH  081%=      5-min Rain = 0
KES1 151004Z 26003KT 23/19 A3007 RMK A01 T02290194  RH  081%=      5-min Rain = 0
KES1 151005Z 26003KT 23/19 A3007 RMK A01 T02280194  RH  081%=      5-min Rain = 0
KES1 151006Z 27003KT 23/19 A3007 RMK A01 T02270194  RH  081%=      5-min Rain = 0
KES1 151007Z 28003KT 23/19 A3007 RMK A01 T02260193  RH  082%=      5-min Rain = 0
KES1 151008Z 29003KT 23/19 A3007 RMK A01 T02260193  RH  082%=      5-min Rain = 0
KES1 151009Z 29003KT 23/19 A3007 RMK A01 T02250193  RH  082%=      5-min Rain = 0
KES1 151010Z 29002KT 23/19 A3007 RMK A01 T02250193  RH  082%=      5-min Rain = 0
KES1 151011Z 28002KT 23/19 A3007 RMK A01 T02250193  RH  082%=      5-min Rain = 0
KES1 151012Z 28002KT 23/19 A3008 RMK A01 T02250194  RH  082%=      5-min Rain = 0
KES1 151013Z 28002KT 23/19 A3008 RMK A01 T02250193  RH  082%=      5-min Rain = 0
KES1 151014Z 28002KT 23/19 A3008 RMK A01 T02250194  RH  083%=      5-min Rain = 0
KES1 151015Z 28001KT 22/19 A3008 RMK A01 T02240194  RH  083%=      5-min Rain = 0
KES1 151016Z 28002KT 22/19 A3008 RMK A01 T02240194  RH  083%=      5-min Rain = 0
KES1 151017Z 29002KT 22/19 A3008 RMK A01 T02240194  RH  083%=      5-min Rain = 0
KES1 151018Z 30002KT 22/19 A3008 RMK A01 T02240194  RH  083%=      5-min Rain = 0
KES1 151019Z 30002KT 22/20 A3008 RMK A01 T02240195  RH  084%=      5-min Rain = 0
KES1 151020Z 30002KT 22/20 A3008 RMK A01 T02240195  RH  084%=      5-min Rain = 0
KES1 151021Z 30002KT 22/19 A3008 RMK A01 T02230194  RH  084%=      5-min Rain = 0
KES1 151022Z 30002KT 22/19 A3008 RMK A01 T02230194  RH  083%=      5-min Rain = 0
KES1 151023Z 29002KT 22/19 A3008 RMK A01 T02230193  RH  083%=      5-min Rain = 0
KES1 151024Z 29002KT 22/19 A3008 RMK A01 T02230193  RH  083%=      5-min Rain = 0
KES1 151025Z 28002KT 22/19 A3008 RMK A01 T02230193  RH  083%=      5-min Rain = 0
KES1 151026Z 27002KT 22/19 A3008 RMK A01 T02230193  RH  083%=      5-min Rain = 0
KES1 151027Z 27003KT 22/19 A3008 RMK A01 T02220193  RH  083%=      5-min Rain = 0
KES1 151028Z 27003KT 22/19 A3008 RMK A01 T02220193  RH  084%=      5-min Rain = 0
KES1 151029Z 26003KT 22/19 A3008 RMK A01 T02220193  RH  084%=      5-min Rain = 0
KES1 151030Z 26003KT 22/19 A3008 RMK A01 T02210193  RH  084%=      5-min Rain = 0
KES1 151031Z 27003KT 22/19 A3008 RMK A01 T02210193  RH  084%=      5-min Rain = 0
KES1 151032Z 28003KT 22/19 A3008 RMK A01 T02210193  RH  084%=      5-min Rain = 0
KES1 151033Z 28004KT 22/19 A3008 RMK A01 T02210193  RH  084%=      5-min Rain = 0
KES1 151034Z 28004KT 22/19 A3008 RMK A01 T02210193  RH  084%=      5-min Rain = 0
KES1 151035Z 28004KT 22/19 A3008 RMK A01 T02210192  RH  084%=      5-min Rain = 0
KES1 151036Z 29004KT 22/19 A3008 RMK A01 T02220193  RH  084%=      5-min Rain = 0
KES1 151037Z 29004KT 22/19 A3008 RMK A01 T02220192  RH  083%=      5-min Rain = 0
KES1 151038Z 29003KT 22/19 A3008 RMK A01 T02220192  RH  083%=      5-min Rain = 0
KES1 151039Z 28003KT 22/19 A3008 RMK A01 T02230192  RH  083%=      5-min Rain = 0
KES1 151040Z 28003KT 22/19 A3008 RMK A01 T02230192  RH  083%=      5-min Rain = 0
KES1 151041Z 28003KT 22/19 A3008 RMK A01 T02230192  RH  083%=      5-min Rain = 0
KES1 151042Z 27003KT 22/19 A3008 RMK A01 T02230193  RH  083%=      5-min Rain = 0
KES1 151043Z 27003KT 22/19 A3008 RMK A01 T02230193  RH  083%=      5-min Rain = 0
KES1 151044Z 27003KT 22/19 A3008 RMK A01 T02220193  RH  084%=      5-min Rain = 0
KES1 151045Z 27003KT 22/19 A3008 RMK A01 T02220193  RH  084%=      5-min Rain = 0
KES1 151046Z 26003KT 22/19 A3008 RMK A01 T02210193  RH  084%=      5-min Rain = 0
KES1 151047Z 26003KT 22/19 A3008 RMK A01 T02210193  RH  084%=      5-min Rain = 0
KES1 151048Z 26002KT 22/19 A3008 RMK A01 T02210193  RH  084%=      5-min Rain = 0
KES1 151049Z 25003KT 22/19 A3008 RMK A01 T02210193  RH  084%=      5-min Rain = 0
KES1 151050Z 25003KT 22/19 A3008 RMK A01 T02200193  RH  084%=      5-min Rain = 0
KES1 151051Z 25003KT 22/19 A3008 RMK A01 T02210193  RH  084%=      5-min Rain = 0
KES1 151052Z 25003KT 22/19 A3008 RMK A01 T02210193  RH  084%=      5-min Rain = 0
KES1 151053Z 25003KT 22/19 A3008 RMK A01 T02200193  RH  085%=      5-min Rain = 0
KES1 151054Z 25003KT 22/19 A3008 RMK A01 T02200193  RH  085%=      5-min Rain = 0
KES1 151055Z 25003KT 22/19 A3008 RMK A01 T02200193  RH  085%=      5-min Rain = 0
KES1 151056Z 25004KT 22/19 A3008 RMK A01 T02200193  RH  085%=      5-min Rain = 0
KES1 151057Z 25004KT 22/19 A3008 RMK A01 T02200194  RH  085%=      5-min Rain = 0
KES1 151058Z 25004KT 22/19 A3008 RMK A01 T02200193  RH  085%=      5-min Rain = 0
KES1 151059Z 25004KT 22/19 A3008 RMK A01 T02200193  RH  085%=      5-min Rain = 0
KES1 151100Z 25004KT 22/19 A3008 RMK A01 T02200194  RH  085%=      5-min Rain = 0
KES1 151101Z 25004KT 22/19 A3008 RMK A01 T02200194  RH  085%=      5-min Rain = 0
KES1 151102Z 25004KT 22/19 A3009 RMK A01 T02200194  RH  085%=      5-min Rain = 0
KES1 151103Z 25004KT 22/19 A3009 RMK A01 T02200193  RH  085%=      5-min Rain = 0
KES1 151104Z 26004KT 22/19 A3009 RMK A01 T02200194  RH  085%=      5-min Rain = 0
KES1 151105Z 26004KT 22/19 A3009 RMK A01 T02200193  RH  085%=      5-min Rain = 0
KES1 151106Z 26004KT 22/19 A3009 RMK A01 T02190193  RH  085%=      5-min Rain = 0
KES1 151107Z 26004KT 22/19 A3009 RMK A01 T02200194  RH  085%=      5-min Rain = 0
KES1 151108Z 26004KT 22/19 A3009 RMK A01 T02200193  RH  085%=      5-min Rain = 0
KES1 151109Z 26003KT 22/19 A3009 RMK A01 T02190193  RH  085%=      5-min Rain = 0
KES1 151110Z 26004KT 22/19 A3009 RMK A01 T02190193  RH  085%=      5-min Rain = 0
KES1 151111Z 26003KT 22/19 A3009 RMK A01 T02190193  RH  085%=      5-min Rain = 0
KES1 151112Z 27003KT 22/19 A3009 RMK A01 T02190193  RH  085%=      5-min Rain = 0
KES1 151113Z 28003KT 22/19 A3009 RMK A01 T02190193  RH  085%=      5-min Rain = 0
KES1 151114Z 28003KT 22/19 A3009 RMK A01 T02190192  RH  085%=      5-min Rain = 0
KES1 151115Z 28003KT 22/19 A301 RMK A01 T02190192  RH  085%=      5-min Rain = 0
KES1 151116Z 29003KT 22/19 A301 RMK A01 T02200192  RH  084%=      5-min Rain = 0
KES1 151117Z 29003KT 22/19 A301 RMK A01 T02190192  RH  084%=      5-min Rain = 0
KES1 151118Z 29003KT 22/19 A301 RMK A01 T02200192  RH  084%=      5-min Rain = 0
KES1 151119Z 29003KT 22/19 A301 RMK A01 T02200192  RH  084%=      5-min Rain = 0
KES1 151120Z 29003KT 22/19 A301 RMK A01 T02200192  RH  084%=      5-min Rain = 0
KES1 151121Z 28003KT 22/19 A301 RMK A01 T02210192  RH  084%=      5-min Rain = 0
KES1 151122Z 28004KT 22/19 A301 RMK A01 T02210192  RH  084%=      5-min Rain = 0
KES1 151123Z 28003KT 22/19 A301 RMK A01 T02210192  RH  083%=      5-min Rain = 0
KES1 151124Z 28003KT 22/19 A301 RMK A01 T02210192  RH  083%=      5-min Rain = 0
KES1 151125Z 27003KT 22/19 A301 RMK A01 T02210192  RH  083%=      5-min Rain = 0
KES1 151126Z 27002KT 22/19 A301 RMK A01 T02220192  RH  083%=      5-min Rain = 0
KES1 151127Z 27002KT 22/19 A301 RMK A01 T02210192  RH  083%=      5-min Rain = 0
KES1 151128Z 26002KT 22/19 A301 RMK A01 T02210191  RH  083%=      5-min Rain = 0
KES1 151129Z 27002KT 22/19 A301 RMK A01 T02220191  RH  083%=      5-min Rain = 0
KES1 151130Z 27002KT 22/19 A301 RMK A01 T02220191  RH  083%=      5-min Rain = 0
KES1 151131Z 27002KT 22/19 A301 RMK A01 T02220191  RH  083%=      5-min Rain = 0
KES1 151132Z 27003KT 22/19 A301 RMK A01 T02220191  RH  082%=      5-min Rain = 0
KES1 151133Z 27003KT 22/19 A301 RMK A01 T02230191  RH  082%=      5-min Rain = 0
KES1 151134Z 27002KT 22/19 A301 RMK A01 T02240191  RH  082%=      5-min Rain = 0
KES1 151135Z 26002KT 22/19 A301 RMK A01 T02240191  RH  082%=      5-min Rain = 0
KES1 151136Z 26001KT 23/19 A301 RMK A01 T02250191  RH  081%=      5-min Rain = 0
KES1 151137Z 25001KT 23/19 A301 RMK A01 T02250191  RH  081%=      5-min Rain = 0
KES1 151138Z 25001KT 23/19 A301 RMK A01 T02250192  RH  082%=      5-min Rain = 0
KES1 151139Z 26000KT 23/19 A301 RMK A01 T02250192  RH  082%=      5-min Rain = 0
KES1 151140Z 24001KT 22/19 A301 RMK A01 T02240192  RH  082%=      5-min Rain = 0
KES1 151141Z 26001KT 22/19 A301 RMK A01 T02240191  RH  082%=      5-min Rain = 0
KES1 151142Z 26001KT 22/19 A301 RMK A01 T02240192  RH  082%=      5-min Rain = 0
KES1 151143Z 00000KT 22/19 A301 RMK A01 T02240192  RH  082%=      5-min Rain = 0
KES1 151144Z 00000KT 22/19 A301 RMK A01 T02240192  RH  082%=      5-min Rain = 0
KES1 151145Z 13001KT 22/19 A301 RMK A01 T02230192  RH  082%=      5-min Rain = 0
KES1 151146Z 13001KT 22/19 A301 RMK A01 T02230193  RH  083%=      5-min Rain = 0
KES1 151147Z 13002KT 22/19 A301 RMK A01 T02220193  RH  084%=      5-min Rain = 0
KES1 151148Z 12001KT 22/19 A301 RMK A01 T02200192  RH  084%=      5-min Rain = 0
KES1 151149Z 13001KT 22/19 A301 RMK A01 T02200192  RH  084%=      5-min Rain = 0
KES1 151150Z 13002KT 22/19 A301 RMK A01 T02200192  RH  084%=      5-min Rain = 0
KES1 151151Z 13002KT 22/19 A301 RMK A01 T02200192  RH  084%=      5-min Rain = 0
KES1 151152Z 14001KT 22/19 A301 RMK A01 T02210192  RH  084%=      5-min Rain = 0
KES1 151153Z 14000KT 22/19 A301 RMK A01 T02210192  RH  084%=      5-min Rain = 0
KES1 151154Z 00000KT 22/19 A301 RMK A01 T02210192  RH  083%=      5-min Rain = 0
KES1 151155Z 00000KT 22/19 A301 RMK A01 T02220191  RH  082%=      5-min Rain = 0
KES1 151156Z 00000KT 22/19 A301 RMK A01 T02230191  RH  082%=      5-min Rain = 0
KES1 151157Z 14000KT 22/19 A301 RMK A01 T02240191  RH  082%=      5-min Rain = 0
KES1 151158Z 14000KT 22/19 A301 RMK A01 T02240192  RH  082%=      5-min Rain = 0
KES1 151159Z 14001KT 22/19 A301 RMK A01 T02240191  RH  081%=      5-min Rain = 0
KES1 151200Z 29001KT 23/19 A301 RMK A01 T02250191  RH  081%=      5-min Rain = 0
KES1 151201Z 29001KT 23/19 A301 RMK A01 T02250191  RH  081%=      5-min Rain = 0
KES1 151202Z 29001KT 23/19 A301 RMK A01 T02260191  RH  081%=      5-min Rain = 0
KES1 151203Z 31002KT 23/19 A301 RMK A01 T02260190  RH  080%=      5-min Rain = 0
KES1 151204Z 31002KT 23/19 A301 RMK A01 T02260190  RH  080%=      5-min Rain = 0
KES1 151205Z 31001KT 23/19 A301 RMK A01 T02270190  RH  080%=      5-min Rain = 0
KES1 151206Z 31001KT 23/19 A301 RMK A01 T02280190  RH  079%=      5-min Rain = 0
KES1 151207Z 31001KT 23/19 A301 RMK A01 T02280190  RH  079%=      5-min Rain = 0
KES1 151208Z 31001KT 23/19 A301 RMK A01 T02280193  RH  080%=      5-min Rain = 0
KES1 151209Z 31001KT 23/19 A301 RMK A01 T02270193  RH  081%=      5-min Rain = 0
KES1 151210Z 31000KT 23/19 A301 RMK A01 T02270194  RH  082%=      5-min Rain = 0
KES1 151211Z 00000KT 23/19 A301 RMK A01 T02260193  RH  082%=      5-min Rain = 0
KES1 151212Z 00000KT 23/19 A301 RMK A01 T02250194  RH  083%=      5-min Rain = 0
KES1 151213Z 00000KT 22/19 A301 RMK A01 T02240193  RH  083%=      5-min Rain = 0
KES1 151214Z 00000KT 22/19 A301 RMK A01 T02240193  RH  083%=      5-min Rain = 0
KES1 151215Z 00000KT 22/19 A301 RMK A01 T02240192  RH  082%=      5-min Rain = 0
KES1 151216Z 00000KT 22/19 A301 RMK A01 T02240192  RH  082%=      5-min Rain = 0
KES1 151217Z 32000KT 23/19 A301 RMK A01 T02250193  RH  082%=      5-min Rain = 0
KES1 151218Z 32001KT 22/19 A301 RMK A01 T02240192  RH  082%=      5-min Rain = 0
KES1 151219Z 32000KT 22/19 A301 RMK A01 T02240192  RH  082%=      5-min Rain = 0
KES1 151220Z 32000KT 22/19 A301 RMK A01 T02240191  RH  082%=      5-min Rain = 0
KES1 151221Z 32000KT 22/19 A301 RMK A01 T02240192  RH  082%=      5-min Rain = 0
KES1 151222Z 34000KT 23/19 A301 RMK A01 T02250192  RH  082%=      5-min Rain = 0
KES1 151223Z 34000KT 23/19 A301 RMK A01 T02250193  RH  082%=      5-min Rain = 0
KES1 151224Z 34000KT 23/19 A301 RMK A01 T02250194  RH  083%=      5-min Rain = 0
KES1 151225Z 34000KT 23/19 A301 RMK A01 T02250194  RH  083%=      5-min Rain = 0
KES1 151226Z 34000KT 23/19 A301 RMK A01 T02250194  RH  083%=      5-min Rain = 0
KES1 151227Z 34000KT 23/19 A301 RMK A01 T02250193  RH  082%=      5-min Rain = 0
KES1 151228Z 00000KT 23/19 A301 RMK A01 T02250194  RH  082%=      5-min Rain = 0
KES1 151229Z 00000KT 23/20 A301 RMK A01 T02260195  RH  083%=      5-min Rain = 0
KES1 151230Z 00000KT 23/19 A301 RMK A01 T02260194  RH  082%=      5-min Rain = 0
KES1 151231Z 09000KT 23/19 A301 RMK A01 T02260194  RH  082%=      5-min Rain = 0
KES1 151232Z 11001KT 23/20 A301 RMK A01 T02260196  RH  083%=      5-min Rain = 0
KES1 151233Z 13002KT 23/20 A301 RMK A01 T02260196  RH  083%=      5-min Rain = 0
KES1 151234Z 13002KT 23/20 A301 RMK A01 T02270197  RH  083%=      5-min Rain = 0
KES1 151235Z 13002KT 23/20 A301 RMK A01 T02260198  RH  084%=      5-min Rain = 0
KES1 151236Z 13002KT 23/20 A301 RMK A01 T02270197  RH  083%=      5-min Rain = 0
KES1 151237Z 13002KT 23/20 A301 RMK A01 T02280196  RH  082%=      5-min Rain = 0
KES1 151238Z 11002KT 23/20 A301 RMK A01 T02290195  RH  081%=      5-min Rain = 0
KES1 151239Z 10002KT 23/20 A301 RMK A01 T02310196  RH  080%=      5-min Rain = 0
KES1 151240Z 08001KT 23/20 A301 RMK A01 T02330196  RH  080%=      5-min Rain = 0
KES1 151241Z 07002KT 23/20 A301 RMK A01 T02340196  RH  080%=      5-min Rain = 0
KES1 151242Z 05002KT 24/20 A301 RMK A01 T02350196  RH  079%=      5-min Rain = 0
KES1 151243Z 04003KT 24/20 A301 RMK A01 T02360197  RH  079%=      5-min Rain = 0
KES1 151244Z 04004KT 24/20 A301 RMK A01 T02370197  RH  078%=      5-min Rain = 0
KES1 151245Z 04004KT 24/20 A3011 RMK A01 T02370197  RH  078%=      5-min Rain = 0
KES1 151246Z 04004KT 24/20 A3011 RMK A01 T02380197  RH  078%=      5-min Rain = 0
KES1 151247Z 03003KT 24/20 A3011 RMK A01 T02380197  RH  077%=      5-min Rain = 0
KES1 151248Z 03003KT 24/20 A3011 RMK A01 T02390198  RH  078%=      5-min Rain = 0
KES1 151249Z 03002KT 24/20 A3011 RMK A01 T02390199  RH  078%=      5-min Rain = 0
KES1 151250Z 02002KT 24/20 A3011 RMK A01 T02390200  RH  078%=      5-min Rain = 0
KES1 151251Z 03002KT 24/20 A3011 RMK A01 T02400198  RH  077%=      5-min Rain = 0
KES1 151252Z 03002KT 24/20 A3011 RMK A01 T02400198  RH  077%=      5-min Rain = 0
KES1 151253Z 03001KT 24/20 A3011 RMK A01 T02410200  RH  077%=      5-min Rain = 0
KES1 151254Z 03001KT 24/20 A3011 RMK A01 T02410198  RH  077%=      5-min Rain = 0
KES1 151255Z 03002KT 24/20 A3011 RMK A01 T02420198  RH  077%=      5-min Rain = 0
KES1 151256Z 03002KT 24/20 A3012 RMK A01 T02410198  RH  077%=      5-min Rain = 0
KES1 151257Z 02002KT 24/20 A3012 RMK A01 T02420198  RH  077%=      5-min Rain = 0
KES1 151258Z 02002KT 24/20 A3012 RMK A01 T02410198  RH  077%=      5-min Rain = 0
KES1 151259Z 01002KT 24/20 A3012 RMK A01 T02410197  RH  076%=      5-min Rain = 0
KES1 151300Z 02002KT 24/20 A3012 RMK A01 T02420197  RH  076%=      5-min Rain = 0
KES1 151301Z 02003KT 24/20 A3012 RMK A01 T02420197  RH  076%=      5-min Rain = 0
KES1 151302Z 02003KT 24/20 A3012 RMK A01 T02420198  RH  076%=      5-min Rain = 0
KES1 151303Z 01003KT 24/20 A3013 RMK A01 T02420197  RH  076%=      5-min Rain = 0
KES1 151304Z 02002KT 24/20 A3013 RMK A01 T02420198  RH  076%=      5-min Rain = 0
KES1 151305Z 01004KT 24/20 A3013 RMK A01 T02420197  RH  076%=      5-min Rain = 0
KES1 151306Z 36003KT 24/20 A3013 RMK A01 T02420197  RH  076%=      5-min Rain = 0
KES1 151307Z 34004KT 24/20 A3013 RMK A01 T02420199  RH  077%=      5-min Rain = 0
KES1 151308Z 33005KT 24/20 A3014 RMK A01 T02400198  RH  077%=      5-min Rain = 0
KES1 151309Z 33006KT 24/20 A3014 RMK A01 T02390199  RH  078%=      5-min Rain = 0
KES1 151310Z 33008KT 24/20 A3015 RMK A01 T02380199  RH  078%=      5-min Rain = 0
KES1 151311Z 32009KT 24/20 A3015 RMK A01 T02370199  RH  079%=      5-min Rain = 0
KES1 151312Z 32009KT 24/20 A3016 RMK A01 T02370200  RH  080%=      5-min Rain = 0
KES1 151313Z 33011KT 24/20 A3016 RMK A01 T02370200  RH  080%=      5-min Rain = 0
KES1 151314Z 33008KT 24/20 A3016 RMK A01 T02370200  RH  079%=      5-min Rain = 0
KES1 151315Z 33007KT 24/20 A3015 RMK A01 T02370200  RH  080%=      5-min Rain = 0
KES1 151316Z 34006KT 24/20 A3015 RMK A01 T02370199  RH  079%=      5-min Rain = 0
KES1 151317Z 34006KT 24/20 A3015 RMK A01 T02370199  RH  079%=      5-min Rain = 0
KES1 151318Z 35005KT 24/20 A3015 RMK A01 T02370197  RH  078%=      5-min Rain = 0
KES1 151319Z 03003KT 24/20 A3014 RMK A01 T02370197  RH  078%=      5-min Rain = 0
KES1 151320Z 05002KT 24/20 A3014 RMK A01 T02380198  RH  079%=      5-min Rain = 0
KES1 151321Z 06002KT 24/20 A3014 RMK A01 T02380200  RH  079%=      5-min Rain = 0
KES1 151322Z 04001KT 24/20 A3014 RMK A01 T02370199  RH  079%=      5-min Rain = 0
KES1 151323Z 34001G6KT 24/20 A3014 RMK A01 T02380200  RH  079%=      5-min Rain = 0
KES1 151324Z 36003KT 24/20 A3014 RMK A01 T02390198  RH  078%=      5-min Rain = 0
KES1 151325Z 35003KT 24/20 A3014 RMK A01 T02390197  RH  077%=      5-min Rain = 0
KES1 151326Z 32004KT 24/20 A3014 RMK A01 T02410199  RH  077%=      5-min Rain = 0
KES1 151327Z 33005KT 24/20 A3015 RMK A01 T02410199  RH  077%=      5-min Rain = 0
KES1 151328Z 31006KT 24/20 A3015 RMK A01 T02420198  RH  077%=      5-min Rain = 0
KES1 151329Z 33005KT 24/20 A3015 RMK A01 T02420198  RH  076%=      5-min Rain = 0
KES1 151330Z 32007KT 24/20 A3014 RMK A01 T02430198  RH  076%=      5-min Rain = 0
KES1 151331Z 32007KT 24/20 A3014 RMK A01 T02440197  RH  075%=      5-min Rain = 0
KES1 151332Z 31005KT 25/20 A3015 RMK A01 T02450198  RH  075%=      5-min Rain = 0
KES1 151333Z 30004KT 25/20 A3014 RMK A01 T02460198  RH  074%=      5-min Rain = 0
KES1 151334Z 31005KT 25/20 A3015 RMK A01 T02460199  RH  075%=      5-min Rain = 0
KES1 151335Z 31004KT 25/20 A3015 RMK A01 T02460199  RH  075%=      5-min Rain = 0
KES1 151336Z 31005G10KT 25/20 A3015 RMK A01 T02460199  RH  075%=      5-min Rain = 0
KES1 151337Z 32008KT 25/20 A3015 RMK A01 T02460196  RH  074%=      5-min Rain = 0
KES1 151338Z 31006KT 25/20 A3014 RMK A01 T02470196  RH  073%=      5-min Rain = 0
KES1 151339Z 32008KT 25/19 A3014 RMK A01 T02470193  RH  072%=      5-min Rain = 0
KES1 151340Z 32008KT 25/19 A3014 RMK A01 T02480190  RH  070%=      5-min Rain = 0
KES1 151341Z 33008KT 25/19 A3014 RMK A01 T02500189  RH  069%=      5-min Rain = 0
KES1 151342Z 33007KT 25/19 A3014 RMK A01 T02510189  RH  068%=      5-min Rain = 0
KES1 151343Z 33008KT 25/19 A3014 RMK A01 T02520189  RH  068%=      5-min Rain = 0
KES1 151344Z 33008KT 25/19 A3014 RMK A01 T02520188  RH  067%=      5-min Rain = 0
KES1 151345Z 33008KT 25/19 A3014 RMK A01 T02530187  RH  067%=      5-min Rain = 0
KES1 151346Z 33007KT 25/19 A3014 RMK A01 T02530188  RH  067%=      5-min Rain = 0
KES1 151347Z 33006KT 25/19 A3014 RMK A01 T02540188  RH  067%=      5-min Rain = 0
KES1 151348Z 34005KT 25/19 A3014 RMK A01 T02540189  RH  067%=      5-min Rain = 0
KES1 151349Z 34007KT 25/19 A3014 RMK A01 T02540187  RH  066%=      5-min Rain = 0
KES1 151350Z 34006KT 25/19 A3014 RMK A01 T02540186  RH  066%=      5-min Rain = 0
KES1 151351Z 35006KT 25/19 A3014 RMK A01 T02540185  RH  066%=      5-min Rain = 0
KES1 151352Z 35008KT 25/18 A3014 RMK A01 T02540182  RH  064%=      5-min Rain = 0
KES1 151353Z 34009KT 26/18 A3014 RMK A01 T02550176  RH  062%=      5-min Rain = 0
KES1 151354Z 33010KT 26/17 A3014 RMK A01 T02560172  RH  060%=      5-min Rain = 0
KES1 151355Z 33009KT 26/17 A3014 RMK A01 T02570169  RH  058%=      5-min Rain = 0
KES1 151356Z 32007KT 26/17 A3014 RMK A01 T02570171  RH  059%=      5-min Rain = 0
KES1 151357Z 34007KT 26/17 A3014 RMK A01 T02580172  RH  059%=      5-min Rain = 0
KES1 151358Z 34007KT 26/17 A3014 RMK A01 T02580169  RH  058%=      5-min Rain = 0
KES1 151359Z 34009KT 26/17 A3014 RMK A01 T02580167  RH  057%=      5-min Rain = 0
KES1 151400Z 34007KT 26/16 A3014 RMK A01 T02580164  RH  056%=      5-min Rain = 0
KES1 151401Z 34007KT 26/17 A3014 RMK A01 T02580166  RH  057%=      5-min Rain = 0
KES1 151402Z 34008KT 26/16 A3014 RMK A01 T02580163  RH  056%=      5-min Rain = 0
KES1 151403Z 33007KT 26/16 A3014 RMK A01 T02570161  RH  055%=      5-min Rain = 0
KES1 151404Z 34007KT 26/16 A3014 RMK A01 T02580161  RH  055%=      5-min Rain = 0
KES1 151405Z 34006KT 26/16 A3014 RMK A01 T02580159  RH  054%=      5-min Rain = 0
KES1 151406Z 33008KT 26/16 A3014 RMK A01 T02580161  RH  055%=      5-min Rain = 0
KES1 151407Z 34008KT 26/16 A3014 RMK A01 T02590158  RH  054%=      5-min Rain = 0
KES1 151408Z 33007KT 26/16 A3014 RMK A01 T02590159  RH  054%=      5-min Rain = 0
KES1 151409Z 34008KT 26/16 A3013 RMK A01 T02590156  RH  053%=      5-min Rain = 0
KES1 151410Z 34008KT 26/16 A3013 RMK A01 T02590156  RH  053%=      5-min Rain = 0
KES1 151411Z 33008KT 26/16 A3013 RMK A01 T02600156  RH  053%=      5-min Rain = 0
KES1 151412Z 32009KT 26/16 A3013 RMK A01 T02600155  RH  053%=      5-min Rain = 0
KES1 151413Z 32009KT 26/16 A3013 RMK A01 T02600155  RH  052%=      5-min Rain = 0
KES1 151414Z 32008KT 26/16 A3013 RMK A01 T02600156  RH  053%=      5-min Rain = 0
KES1 151415Z 32008KT 26/16 A3013 RMK A01 T02600158  RH  053%=      5-min Rain = 0
KES1 151416Z 32008KT 26/16 A3013 RMK A01 T02600157  RH  053%=      5-min Rain = 0
KES1 151417Z 32008KT 26/16 A3013 RMK A01 T02600156  RH  053%=      5-min Rain = 0
KES1 151418Z 32008KT 26/16 A3013 RMK A01 T02590156  RH  053%=      5-min Rain = 0
KES1 151419Z 32008KT 26/16 A3013 RMK A01 T02590156  RH  053%=      5-min Rain = 0
KES1 151420Z 31008KT 26/16 A3013 RMK A01 T02590157  RH  053%=      5-min Rain = 0
KES1 151421Z 30007KT 26/16 A3013 RMK A01 T02580157  RH  054%=      5-min Rain = 0
KES1 151422Z 31006KT 26/16 A3013 RMK A01 T02580159  RH  054%=      5-min Rain = 0
KES1 151423Z 30007KT 26/16 A3013 RMK A01 T02580158  RH  054%=      5-min Rain = 0
KES1 151424Z 30006KT 26/16 A3013 RMK A01 T02590158  RH  054%=      5-min Rain = 0
KES1 151425Z 30007KT 26/16 A3013 RMK A01 T02580158  RH  054%=      5-min Rain = 0
KES1 151426Z 30006KT 26/16 A3012 RMK A01 T02580157  RH  054%=      5-min Rain = 0
KES1 151427Z 30009KT 26/16 A3012 RMK A01 T02590156  RH  053%=      5-min Rain = 0
KES1 151428Z 30005KT 26/16 A3012 RMK A01 T02590158  RH  054%=      5-min Rain = 0
KES1 151429Z 30007KT 26/16 A3012 RMK A01 T02590157  RH  053%=      5-min Rain = 0
KES1 151430Z 30007KT 26/16 A3012 RMK A01 T02590156  RH  053%=      5-min Rain = 0
KES1 151431Z 31008KT 26/16 A3012 RMK A01 T02590155  RH  053%=      5-min Rain = 0
KES1 151432Z 30008KT 26/15 A3012 RMK A01 T02600154  RH  052%=      5-min Rain = 0
KES1 151433Z 30006KT 26/16 A3012 RMK A01 T02600155  RH  052%=      5-min Rain = 0
KES1 151434Z 30006KT 26/16 A3012 RMK A01 T02600157  RH  053%=      5-min Rain = 0
KES1 151435Z 28005KT 26/16 A3012 RMK A01 T02610157  RH  053%=      5-min Rain = 0
KES1 151436Z 29006KT 26/15 A3011 RMK A01 T02620154  RH  052%=      5-min Rain = 0
KES1 151437Z 28007KT 26/16 A3011 RMK A01 T02620155  RH  052%=      5-min Rain = 0
KES1 151438Z 29006KT 26/16 A3011 RMK A01 T02620155  RH  052%=      5-min Rain = 0
KES1 151439Z 28006KT 26/16 A3011 RMK A01 T02620156  RH  052%=      5-min Rain = 0
KES1 151440Z 29006KT 26/16 A3011 RMK A01 T02630155  RH  052%=      5-min Rain = 0
KES1 151441Z 28007KT 26/16 A3011 RMK A01 T02630155  RH  051%=      5-min Rain = 0
KES1 151442Z 29006KT 26/15 A3011 RMK A01 T02630154  RH  051%=      5-min Rain = 0
KES1 151443Z 27006KT 26/15 A3011 RMK A01 T02630153  RH  051%=      5-min Rain = 0
KES1 151444Z 29006KT 26/15 A3011 RMK A01 T02630153  RH  051%=      5-min Rain = 0
KES1 151445Z 28005KT 26/16 A3011 RMK A01 T02640155  RH  051%=      5-min Rain = 0
KES1 151446Z 27005KT 26/15 A301 RMK A01 T02640154  RH  051%=      5-min Rain = 0
KES1 151447Z 26006KT 26/15 A301 RMK A01 T02640154  RH  051%=      5-min Rain = 0
KES1 151448Z 26006KT 27/15 A301 RMK A01 T02650154  RH  051%=      5-min Rain = 0
KES1 151449Z 25005KT 27/15 A301 RMK A01 T02650153  RH  050%=      5-min Rain = 0
KES1 151450Z 26006KT 27/15 A301 RMK A01 T02660154  RH  050%=      5-min Rain = 0
KES1 151451Z 25005KT 27/15 A301 RMK A01 T02660153  RH  050%=      5-min Rain = 0
KES1 151452Z 25006KT 27/15 A301 RMK A01 T02660154  RH  050%=      5-min Rain = 0
KES1 151453Z 24006KT 27/15 A301 RMK A01 T02660154  RH  050%=      5-min Rain = 0
KES1 151454Z 25006KT 27/15 A301 RMK A01 T02660153  RH  050%=      5-min Rain = 0
KES1 151455Z 24008KT 27/15 A3009 RMK A01 T02670154  RH  050%=      5-min Rain = 0
KES1 151456Z 25006KT 27/15 A3009 RMK A01 T02670153  RH  050%=      5-min Rain = 0
KES1 151457Z 24005KT 27/15 A3009 RMK A01 T02670152  RH  049%=      5-min Rain = 0
KES1 151458Z 25006KT 27/15 A3009 RMK A01 T02670152  RH  049%=      5-min Rain = 0
KES1 151459Z 24006KT 27/15 A3009 RMK A01 T02670152  RH  049%=      5-min Rain = 0
KES1 151500Z 24006KT 27/15 A3009 RMK A01 T02670151  RH  049%=      5-min Rain = 0
KES1 151501Z 23006KT 27/15 A3008 RMK A01 T02670152  RH  049%=      5-min Rain = 0
KES1 151502Z 23005KT 27/15 A3008 RMK A01 T02670151  RH  049%=      5-min Rain = 0
KES1 151503Z 22006KT 27/15 A3008 RMK A01 T02670152  RH  049%=      5-min Rain = 0
KES1 151504Z 21006KT 27/15 A3008 RMK A01 T02680151  RH  049%=      5-min Rain = 0
KES1 151505Z 21005KT 27/15 A3008 RMK A01 T02680151  RH  049%=      5-min Rain = 0
KES1 151506Z 21005KT 27/15 A3007 RMK A01 T02680153  RH  049%=      5-min Rain = 0
KES1 151507Z 21005KT 27/15 A3007 RMK A01 T02680152  RH  049%=      5-min Rain = 0
KES1 151508Z 20005KT 27/15 A3007 RMK A01 T02680152  RH  049%=      5-min Rain = 0
KES1 151509Z 20005KT 27/15 A3007 RMK A01 T02690151  RH  049%=      5-min Rain = 0
KES1 151510Z 20006KT 27/15 A3007 RMK A01 T02690152  RH  049%=      5-min Rain = 0
KES1 151511Z 19006KT 27/15 A3006 RMK A01 T02690151  RH  048%=      5-min Rain = 0
KES1 151512Z 19006KT 27/15 A3006 RMK A01 T02690152  RH  048%=      5-min Rain = 0
KES1 151513Z 20007KT 27/15 A3006 RMK A01 T02700151  RH  048%=      5-min Rain = 0
KES1 151514Z 20007KT 27/15 A3006 RMK A01 T02700150  RH  048%=      5-min Rain = 0
KES1 151515Z 20008KT 27/15 A3006 RMK A01 T02700150  RH  048%=      5-min Rain = 0
KES1 151516Z 20008KT 27/15 A3006 RMK A01 T02700150  RH  048%=      5-min Rain = 0
KES1 151517Z 20007KT 27/15 A3006 RMK A01 T02700150  RH  048%=      5-min Rain = 0
KES1 151518Z 20007KT 27/15 A3005 RMK A01 T02700151  RH  048%=      5-min Rain = 0
KES1 151519Z 20007KT 27/15 A3005 RMK A01 T02700149  RH  047%=      5-min Rain = 0
KES1 151520Z 19007KT 27/15 A3005 RMK A01 T02710149  RH  047%=      5-min Rain = 0
KES1 151521Z 19007KT 27/15 A3005 RMK A01 T02710149  RH  047%=      5-min Rain = 0
KES1 151522Z 19007KT 27/15 A3004 RMK A01 T02720149  RH  047%=      5-min Rain = 0
KES1 151523Z 18007KT 27/15 A3004 RMK A01 T02730151  RH  047%=      5-min Rain = 0
KES1 151524Z 17007KT 27/15 A3004 RMK A01 T02720151  RH  047%=      5-min Rain = 0
KES1 151525Z 17007KT 27/15 A3004 RMK A01 T02730151  RH  047%=      5-min Rain = 0
KES1 151526Z 17009KT 27/15 A3003 RMK A01 T02730150  RH  047%=      5-min Rain = 0
KES1 151527Z 16009KT 27/15 A3003 RMK A01 T02730151  RH  047%=      5-min Rain = 0
KES1 151528Z 16009KT 27/15 A3003 RMK A01 T02730152  RH  048%=      5-min Rain = 0
KES1 151529Z 16010KT 27/15 A3003 RMK A01 T02730153  RH  048%=      5-min Rain = 0
KES1 151530Z 16009KT 27/15 A3002 RMK A01 T02730154  RH  048%=      5-min Rain = 0
KES1 151531Z 16010KT 27/15 A3002 RMK A01 T02730154  RH  048%=      5-min Rain = 0
KES1 151532Z 16011KT 27/16 A3002 RMK A01 T02730156  RH  049%=      5-min Rain = 0
KES1 151533Z 16012KT 27/16 A3002 RMK A01 T02730156  RH  049%=      5-min Rain = 0
KES1 151534Z 16011KT 27/16 A3002 RMK A01 T02730156  RH  049%=      5-min Rain = 0
KES1 151535Z 15011KT 27/16 A3001 RMK A01 T02730157  RH  049%=      5-min Rain = 0
KES1 151536Z 16013KT 27/16 A3001 RMK A01 T02730156  RH  049%=      5-min Rain = 0
KES1 151537Z 16013KT 27/16 A3001 RMK A01 T02730156  RH  049%=      5-min Rain = 0
KES1 151538Z 15011KT 27/16 A3001 RMK A01 T02730157  RH  049%=      5-min Rain = 0
KES1 151539Z 16012KT 27/16 A3002 RMK A01 T02730156  RH  049%=      5-min Rain = 0
KES1 151540Z 17011KT 27/16 A3002 RMK A01 T02740155  RH  048%=      5-min Rain = 0
KES1 151541Z 17011KT 28/16 A3002 RMK A01 T02750156  RH  048%=      5-min Rain = 0
KES1 151542Z 17013KT 28/16 A3002 RMK A01 T02760156  RH  048%=      5-min Rain = 0
KES1 151543Z 17010KT 28/16 A3002 RMK A01 T02760156  RH  048%=      5-min Rain = 0
KES1 151544Z 18010KT 28/16 A3002 RMK A01 T02770157  RH  048%=      5-min Rain = 0
KES1 151545Z 17009KT 28/16 A3003 RMK A01 T02770158  RH  048%=      5-min Rain = 0
KES1 151546Z 17008KT 28/16 A3003 RMK A01 T02780158  RH  048%=      5-min Rain = 0
KES1 151547Z 17009KT 28/16 A3003 RMK A01 T02780158  RH  048%=      5-min Rain = 0
KES1 151548Z 17007KT 28/16 A3003 RMK A01 T02790157  RH  048%=      5-min Rain = 0
KES1 151549Z 17009KT 28/16 A3003 RMK A01 T02790158  RH  048%=      5-min Rain = 0
KES1 151550Z 18006G11KT 28/16 A3003 RMK A01 T02800158  RH  047%=      5-min Rain = 0
KES1 151551Z 18008KT 28/16 A3003 RMK A01 T02810158  RH  047%=      5-min Rain = 0
KES1 151552Z 18008KT 28/16 A3003 RMK A01 T02810158  RH  047%=      5-min Rain = 0
KES1 151553Z 18007KT 28/16 A3003 RMK A01 T02820158  RH  047%=      5-min Rain = 0
KES1 151554Z 17006KT 28/16 A3003 RMK A01 T02830159  RH  047%=      5-min Rain = 0
KES1 151555Z 18008KT 29/16 A3003 RMK A01 T02850159  RH  046%=      5-min Rain = 0
KES1 151556Z 17010KT 29/16 A3003 RMK A01 T02860160  RH  046%=      5-min Rain = 0
KES1 151557Z 18010KT 29/16 A3003 RMK A01 T02870160  RH  046%=      5-min Rain = 0
KES1 151558Z 18010KT 29/16 A3004 RMK A01 T02880159  RH  046%=      5-min Rain = 0
KES1 151559Z 18009KT 29/16 A3004 RMK A01 T02880161  RH  046%=      5-min Rain = 0
KES1 151600Z 17010KT 29/16 A3004 RMK A01 T02890160  RH  046%=      5-min Rain = 0
KES1 151601Z 18009KT 29/16 A3004 RMK A01 T02890160  RH  046%=      5-min Rain = 0
KES1 151602Z 18007KT 29/16 A3004 RMK A01 T02910161  RH  045%=      5-min Rain = 0
KES1 151603Z 17011KT 29/16 A3004 RMK A01 T02940161  RH  045%=      5-min Rain = 0
KES1 151604Z 16009KT 30/16 A3004 RMK A01 T02950160  RH  044%=      5-min Rain = 0
KES1 151605Z 17010KT 30/16 A3004 RMK A01 T02970161  RH  044%=      5-min Rain = 0
KES1 151606Z 17011KT 30/16 A3004 RMK A01 T02980161  RH  044%=      5-min Rain = 0
KES1 151607Z 18009KT 30/16 A3005 RMK A01 T03000163  RH  044%=      5-min Rain = 0
KES1 151608Z 18007KT 30/16 A3005 RMK A01 T03020164  RH  044%=      5-min Rain = 0
KES1 151609Z 19009KT 30/17 A3005 RMK A01 T03040165  RH  043%=      5-min Rain = 0
KES1 151610Z 19009KT 31/16 A3005 RMK A01 T03050163  RH  043%=      5-min Rain = 0
KES1 151611Z 19007KT 30/16 A3005 RMK A01 T03020163  RH  043%=      5-min Rain = 0
KES1 151612Z 19005KT 30/16 A3006 RMK A01 T03000164  RH  044%=      5-min Rain = 0
KES1 151613Z 21005KT 30/16 A3006 RMK A01 T03020163  RH  043%=      5-min Rain = 0
KES1 151614Z 21006KT 30/16 A3006 RMK A01 T03040163  RH  043%=      5-min Rain = 0
KES1 151615Z 22006KT 30/16 A3006 RMK A01 T03040161  RH  042%=      5-min Rain = 0
KES1 151616Z 25008KT 30/16 A3006 RMK A01 T03040164  RH  043%=      5-min Rain = 0
KES1 151617Z 23009KT 31/16 A3006 RMK A01 T03050161  RH  042%=      5-min Rain = 0
KES1 151618Z 21007KT 31/16 A3005 RMK A01 T03060160  RH  041%=      5-min Rain = 0
KES1 151619Z 20007KT 31/16 A3005 RMK A01 T03060162  RH  042%=      5-min Rain = 0
KES1 151620Z 21009KT 31/16 A3005 RMK A01 T03070162  RH  042%=      5-min Rain = 0
KES1 151621Z 22008KT 31/16 A3005 RMK A01 T03100159  RH  040%=      5-min Rain = 0
KES1 151622Z 23006KT 31/16 A3005 RMK A01 T03100159  RH  040%=      5-min Rain = 0
KES1 151623Z 22007KT 31/16 A3005 RMK A01 T03110160  RH  040%=      5-min Rain = 0
KES1 151624Z 24009KT 31/16 A3005 RMK A01 T03140158  RH  039%=      5-min Rain = 0
KES1 151625Z 23009KT 32/16 A3005 RMK A01 T03150159  RH  039%=      5-min Rain = 0
KES1 151626Z 24009KT 32/16 A3005 RMK A01 T03160158  RH  039%=      5-min Rain = 0
KES1 151627Z 27008KT 32/16 A3005 RMK A01 T03190159  RH  038%=      5-min Rain = 0
KES1 151628Z 26009KT 32/16 A3005 RMK A01 T03220155  RH  037%=      5-min Rain = 0
KES1 151629Z 27006KT 32/16 A3005 RMK A01 T03190155  RH  037%=      5-min Rain = 0
KES1 151630Z 28006KT 32/16 A3005 RMK A01 T03180157  RH  038%=      5-min Rain = 0
KES1 151631Z 25006KT 32/16 A3005 RMK A01 T03190155  RH  037%=      5-min Rain = 0
KES1 151632Z 23005KT 32/16 A3005 RMK A01 T03190155  RH  037%=      5-min Rain = 0
KES1 151633Z 26004KT 32/15 A3005 RMK A01 T03180154  RH  037%=      5-min Rain = 0
KES1 151634Z 28004KT 32/16 A3005 RMK A01 T03180156  RH  038%=      5-min Rain = 0
KES1 151635Z 30003KT 32/16 A3005 RMK A01 T03170156  RH  038%=      5-min Rain = 0
KES1 151636Z 30006KT 32/16 A3005 RMK A01 T03170160  RH  039%=      5-min Rain = 0
KES1 151637Z 29006KT 32/16 A3005 RMK A01 T03200158  RH  038%=      5-min Rain = 0
KES1 151638Z 31003KT 32/16 A3005 RMK A01 T03190156  RH  037%=      5-min Rain = 0
KES1 151639Z 33005KT 32/16 A3005 RMK A01 T03180157  RH  038%=      5-min Rain = 0
KES1 151640Z 33004KT 32/15 A3005 RMK A01 T03150154  RH  038%=      5-min Rain = 0
KES1 151641Z 31006KT 31/16 A3005 RMK A01 T03140158  RH  039%=      5-min Rain = 0
KES1 151642Z 31005KT 32/16 A3005 RMK A01 T03150157  RH  039%=      5-min Rain = 0
KES1 151643Z 32006KT 32/16 A3005 RMK A01 T03170158  RH  038%=      5-min Rain = 0
KES1 151644Z 30008KT 32/16 A3005 RMK A01 T03190160  RH  039%=      5-min Rain = 0
KES1 151645Z 26007KT 32/16 A3005 RMK A01 T03200159  RH  038%=      5-min Rain = 0
KES1 151646Z 27003KT 32/16 A3005 RMK A01 T03190157  RH  038%=      5-min Rain = 0
KES1 151647Z 26004KT 32/16 A3005 RMK A01 T03160159  RH  039%=      5-min Rain = 0
KES1 151648Z 27007KT 32/16 A3004 RMK A01 T03160160  RH  039%=      5-min Rain = 0
KES1 151649Z 28006KT 32/16 A3004 RMK A01 T03180161  RH  039%=      5-min Rain = 0
KES1 151650Z 27005KT 32/16 A3004 RMK A01 T03190161  RH  039%=      5-min Rain = 0
KES1 151651Z 28003KT 32/16 A3004 RMK A01 T03200162  RH  038%=      5-min Rain = 0
KES1 151652Z 30004KT 32/16 A3004 RMK A01 T03220163  RH  038%=      5-min Rain = 0
KES1 151653Z 31006KT 32/16 A3004 RMK A01 T03240164  RH  038%=      5-min Rain = 0
KES1 151654Z 31004KT 33/16 A3004 RMK A01 T03250164  RH  038%=      5-min Rain = 0
KES1 151655Z 35003KT 33/16 A3004 RMK A01 T03250162  RH  037%=      5-min Rain = 0
KES1 151656Z 35002KT 33/16 A3004 RMK A01 T03250162  RH  038%=      5-min Rain = 0
KES1 151657Z 31002KT 32/17 A3004 RMK A01 T03240165  RH  039%=      5-min Rain = 0
KES1 151658Z 32002KT 33/17 A3004 RMK A01 T03260166  RH  038%=      5-min Rain = 0
KES1 151659Z 28001KT 33/16 A3004 RMK A01 T03270163  RH  038%=      5-min Rain = 0
KES1 151700Z 20001KT 33/17 A3004 RMK A01 T03280168  RH  038%=      5-min Rain = 0
KES1 151701Z 15002KT 33/17 A3004 RMK A01 T03310169  RH  038%=      5-min Rain = 0
KES1 151702Z 16004KT 34/17 A3004 RMK A01 T03350170  RH  037%=      5-min Rain = 0
KES1 151703Z 17005KT 34/17 A3004 RMK A01 T03360171  RH  037%=      5-min Rain = 0
KES1 151704Z 21006KT 33/17 A3004 RMK A01 T03340169  RH  037%=      5-min Rain = 0
KES1 151705Z 20006KT 33/17 A3004 RMK A01 T03320172  RH  039%=      5-min Rain = 0
KES1 151706Z 21008KT 33/17 A3004 RMK A01 T03330170  RH  038%=      5-min Rain = 0
KES1 151707Z 20005KT 33/17 A3004 RMK A01 T03320170  RH  038%=      5-min Rain = 0
KES1 151708Z 20003KT 33/17 A3004 RMK A01 T03300169  RH  038%=      5-min Rain = 0
KES1 151709Z 15002KT 33/17 A3004 RMK A01 T03280169  RH  039%=      5-min Rain = 0
KES1 151710Z 15003KT 33/17 A3004 RMK A01 T03290173  RH  039%=      5-min Rain = 0
KES1 151711Z 18007KT 33/18 A3004 RMK A01 T03340177  RH  039%=      5-min Rain = 0
KES1 151712Z 18006KT 34/18 A3004 RMK A01 T03380175  RH  038%=      5-min Rain = 0
KES1 151713Z 15005KT 34/18 A3004 RMK A01 T03380178  RH  039%=      5-min Rain = 0
KES1 151714Z 13005G10KT 34/18 A3004 RMK A01 T03390182  RH  040%=      5-min Rain = 0
KES1 151715Z 15005KT 34/18 A3004 RMK A01 T03430183  RH  039%=      5-min Rain = 0
KES1 151716Z 13007G12KT 35/18 A3004 RMK A01 T03460184  RH  038%=      5-min Rain = 0
KES1 151717Z 15009KT 35/18 A3004 RMK A01 T03470181  RH  038%=      5-min Rain = 0
KES1 151718Z 18006KT 35/18 A3004 RMK A01 T03450177  RH  037%=      5-min Rain = 0
KES1 151719Z 17008G13KT 34/18 A3004 RMK A01 T03410177  RH  038%=      5-min Rain = 0
KES1 151720Z 16009KT 34/18 A3004 RMK A01 T03390178  RH  038%=      5-min Rain = 0
KES1 151721Z 15007KT 34/18 A3003 RMK A01 T03390180  RH  039%=      5-min Rain = 0
KES1 151722Z 14008KT 34/18 A3003 RMK A01 T03410182  RH  039%=      5-min Rain = 0
KES1 151723Z 15007KT 34/18 A3003 RMK A01 T03440179  RH  038%=      5-min Rain = 0
KES1 151724Z 13008KT 34/18 A3003 RMK A01 T03410181  RH  039%=      5-min Rain = 0
KES1 151725Z 14010KT 34/18 A3003 RMK A01 T03400182  RH  039%=      5-min Rain = 0
KES1 151726Z 17008KT 34/18 A3003 RMK A01 T03410180  RH  038%=      5-min Rain = 0
KES1 151727Z 15007KT 34/18 A3003 RMK A01 T03410180  RH  039%=      5-min Rain = 0
KES1 151728Z 16007KT 34/18 A3003 RMK A01 T03410182  RH  039%=      5-min Rain = 0
KES1 151729Z 14005KT 34/18 A3003 RMK A01 T03430183  RH  039%=      5-min Rain = 0
KES1 151730Z 12005KT 35/18 A3003 RMK A01 T03450182  RH  038%=      5-min Rain = 0
KES1 151731Z 14008KT 35/18 A3003 RMK A01 T03450183  RH  038%=      5-min Rain = 0
KES1 151732Z 13007KT 35/18 A3003 RMK A01 T03450182  RH  038%=      5-min Rain = 0
KES1 151733Z 14010KT 35/18 A3003 RMK A01 T03450183  RH  038%=      5-min Rain = 0
KES1 151734Z 18008KT 35/18 A3003 RMK A01 T03480182  RH  038%=      5-min Rain = 0
KES1 151735Z 15007KT 35/18 A3003 RMK A01 T03480179  RH  037%=      5-min Rain = 0
KES1 151736Z 16007KT 35/18 A3003 RMK A01 T03480181  RH  037%=      5-min Rain = 0
KES1 151737Z 15008KT 35/18 A3003 RMK A01 T03480183  RH  038%=      5-min Rain = 0
KES1 151738Z 16004KT 35/18 A3003 RMK A01 T03490179  RH  037%=      5-min Rain = 0
KES1 151739Z 14002KT 35/18 A3003 RMK A01 T03470179  RH  037%=      5-min Rain = 0
KES1 151740Z 20002KT 35/18 A3003 RMK A01 T03460180  RH  037%=      5-min Rain = 0
KES1 151741Z 17008KT 35/18 A3003 RMK A01 T03480182  RH  038%=      5-min Rain = 0
KES1 151742Z 17009KT 35/18 A3003 RMK A01 T03530181  RH  036%=      5-min Rain = 0
KES1 151743Z 17009KT 35/18 A3003 RMK A01 T03530180  RH  036%=      5-min Rain = 0
KES1 151744Z 17010KT 35/18 A3003 RMK A01 T03520181  RH  036%=      5-min Rain = 0
KES1 151745Z 15007KT 35/18 A3003 RMK A01 T03530179  RH  036%=      5-min Rain = 0
KES1 151746Z 14005KT 35/18 A3003 RMK A01 T03520181  RH  036%=      5-min Rain = 0
KES1 151747Z 16004KT 35/18 A3003 RMK A01 T03540183  RH  037%=      5-min Rain = 0
KES1 151748Z 14007KT 36/18 A3003 RMK A01 T03570184  RH  036%=      5-min Rain = 0
KES1 151749Z 17007KT 36/18 A3003 RMK A01 T03580182  RH  036%=      5-min Rain = 0
KES1 151750Z 19007KT 36/18 A3003 RMK A01 T03560180  RH  035%=      5-min Rain = 0
KES1 151751Z 17005KT 35/18 A3002 RMK A01 T03530179  RH  036%=      5-min Rain = 0
KES1 151752Z 15010KT 35/18 A3002 RMK A01 T03530183  RH  037%=      5-min Rain = 0
KES1 151753Z 14009KT 36/18 A3002 RMK A01 T03570183  RH  036%=      5-min Rain = 0
KES1 151754Z 14007KT 36/18 A3002 RMK A01 T03580181  RH  035%=      5-min Rain = 0
KES1 151755Z 15007KT 36/18 A3002 RMK A01 T03560181  RH  036%=      5-min Rain = 0
KES1 151756Z 17008KT 35/18 A3002 RMK A01 T03540182  RH  036%=      5-min Rain = 0
KES1 151757Z 16009KT 36/18 A3003 RMK A01 T03550179  RH  035%=      5-min Rain = 0
KES1 151758Z 16007KT 35/18 A3003 RMK A01 T03510177  RH  036%=      5-min Rain = 0
KES1 151759Z 15006KT 35/18 A3002 RMK A01 T03470178  RH  037%=      5-min Rain = 0
KES1 151800Z 16004KT 34/18 A3002 RMK A01 T03440178  RH  037%=      5-min Rain = 0
KES1 151801Z 15007KT 35/18 A3003 RMK A01 T03450182  RH  038%=      5-min Rain = 0
KES1 151802Z 15007KT 35/18 A3002 RMK A01 T03480182  RH  037%=      5-min Rain = 0
KES1 151803Z 14009KT 35/18 A3002 RMK A01 T03470182  RH  038%=      5-min Rain = 0
KES1 151804Z 14007KT 35/18 A3002 RMK A01 T03470183  RH  038%=      5-min Rain = 0
KES1 151805Z 13010KT 35/18 A3002 RMK A01 T03470183  RH  038%=      5-min Rain = 0
KES1 151806Z 14008KT 35/18 A3002 RMK A01 T03450184  RH  039%=      5-min Rain = 0
KES1 151807Z 15005KT 34/18 A3002 RMK A01 T03440184  RH  039%=      5-min Rain = 0
KES1 151808Z 15006KT 34/18 A3002 RMK A01 T03440184  RH  039%=      5-min Rain = 0
KES1 151809Z 12006KT 34/19 A3002 RMK A01 T03430185  RH  039%=      5-min Rain = 0
KES1 151810Z 14006KT 34/18 A3002 RMK A01 T03420182  RH  039%=      5-min Rain = 0
KES1 151811Z 14005KT 34/18 A3002 RMK A01 T03410183  RH  039%=      5-min Rain = 0
KES1 151812Z 16007KT 34/19 A3002 RMK A01 T03420185  RH  039%=      5-min Rain = 0
KES1 151813Z 17008KT 35/19 A3002 RMK A01 T03470186  RH  039%=      5-min Rain = 0
KES1 151814Z 15008KT 35/19 A3002 RMK A01 T03510188  RH  038%=      5-min Rain = 0
KES1 151815Z 14009G14KT 35/19 A3002 RMK A01 T03540187  RH  038%=      5-min Rain = 0
KES1 151816Z 15009KT 36/19 A3002 RMK A01 T03550187  RH  037%=      5-min Rain = 0
KES1 151817Z 16009KT 36/19 A3002 RMK A01 T03560186  RH  037%=      5-min Rain = 0
KES1 151818Z 17007KT 36/19 A3002 RMK A01 T03570185  RH  036%=      5-min Rain = 0
KES1 151819Z 15010KT 36/19 A3002 RMK A01 T03590187  RH  037%=      5-min Rain = 0
KES1 151820Z 16007KT 36/19 A3002 RMK A01 T03590185  RH  036%=      5-min Rain = 0
KES1 151821Z 18005KT 36/19 A3002 RMK A01 T03550186  RH  037%=      5-min Rain = 0
KES1 151822Z 15005KT 36/19 A3002 RMK A01 T03550187  RH  037%=      5-min Rain = 0
KES1 151823Z 13008KT 36/19 A3002 RMK A01 T03550187  RH  037%=      5-min Rain = 0
KES1 151824Z 16011KT 36/19 A3002 RMK A01 T03570186  RH  037%=      5-min Rain = 0
KES1 151825Z 15011KT 36/18 A3002 RMK A01 T03570184  RH  036%=      5-min Rain = 0
KES1 151826Z 14010KT 36/18 A3001 RMK A01 T03570184  RH  036%=      5-min Rain = 0
KES1 151827Z 14012KT 36/18 A3001 RMK A01 T03560183  RH  036%=      5-min Rain = 0
KES1 151828Z 16009KT 36/18 A3001 RMK A01 T03550182  RH  036%=      5-min Rain = 0
KES1 151829Z 17007KT 36/18 A3001 RMK A01 T03550183  RH  036%=      5-min Rain = 0
KES1 151830Z 15005G10KT 36/19 A3001 RMK A01 T03580186  RH  036%=      5-min Rain = 0
KES1 151831Z 14008KT 36/18 A3001 RMK A01 T03600182  RH  035%=      5-min Rain = 0
KES1 151832Z 17005KT 36/19 A3001 RMK A01 T03580187  RH  037%=      5-min Rain = 0
KES1 151833Z 16005KT 36/19 A3001 RMK A01 T03630188  RH  036%=      5-min Rain = 0
KES1 151834Z 16008G14KT 37/19 A3001 RMK A01 T03660185  RH  035%=      5-min Rain = 0
KES1 151835Z 15012KT 36/18 A3001 RMK A01 T03640183  RH  035%=      5-min Rain = 0
KES1 151836Z 15010KT 36/18 A3001 RMK A01 T03610182  RH  035%=      5-min Rain = 0
KES1 151837Z 15011KT 36/18 A3001 RMK A01 T03600184  RH  035%=      5-min Rain = 0
KES1 151838Z 14011KT 36/18 A3001 RMK A01 T03610182  RH  035%=      5-min Rain = 0
KES1 151839Z 14010KT 36/18 A3001 RMK A01 T03610183  RH  035%=      5-min Rain = 0
KES1 151840Z 15008KT 36/18 A3001 RMK A01 T03610182  RH  035%=      5-min Rain = 0
KES1 151841Z 13006KT 36/18 A3001 RMK A01 T03610182  RH  035%=      5-min Rain = 0
KES1 151842Z 12008KT 36/18 A3001 RMK A01 T03610181  RH  035%=      5-min Rain = 0
KES1 151843Z 13007KT 36/18 A3001 RMK A01 T03590180  RH  035%=      5-min Rain = 0
KES1 151844Z 16010KT 36/18 A3001 RMK A01 T03590182  RH  035%=      5-min Rain = 0
KES1 151845Z 17011KT 36/18 A3001 RMK A01 T03630183  RH  035%=      5-min Rain = 0
KES1 151846Z 17007KT 37/18 A3001 RMK A01 T03650182  RH  034%=      5-min Rain = 0
KES1 151847Z 16011KT 37/18 A3001 RMK A01 T03650182  RH  034%=      5-min Rain = 0
KES1 151848Z 16008G13KT 36/18 A3001 RMK A01 T03640180  RH  034%=      5-min Rain = 0
KES1 151849Z 16008KT 36/18 A3001 RMK A01 T03640181  RH  034%=      5-min Rain = 0
KES1 151850Z 15006KT 36/18 A3001 RMK A01 T03640181  RH  034%=      5-min Rain = 0
KES1 151851Z 15006KT 36/18 A30 RMK A01 T03630180  RH  034%=      5-min Rain = 0
KES1 151852Z 15009KT 36/18 A3001 RMK A01 T03620181  RH  035%=      5-min Rain = 0
KES1 151853Z 15010KT 36/18 A30 RMK A01 T03600181  RH  035%=      5-min Rain = 0
KES1 151854Z 13010KT 36/18 A30 RMK A01 T03600182  RH  035%=      5-min Rain = 0
KES1 151855Z 15006KT 36/18 A30 RMK A01 T03640184  RH  035%=      5-min Rain = 0
KES1 151856Z 13009KT 37/19 A30 RMK A01 T03680187  RH  035%=      5-min Rain = 0
KES1 151857Z 15012KT 37/19 A30 RMK A01 T03720186  RH  034%=      5-min Rain = 0
KES1 151858Z 16011KT 37/18 A30 RMK A01 T03710181  RH  033%=      5-min Rain = 0
KES1 151859Z 16011KT 37/18 A30 RMK A01 T03670179  RH  033%=      5-min Rain = 0
KES1 151900Z 16010KT 36/18 A30 RMK A01 T03640179  RH  034%=      5-min Rain = 0
KES1 151901Z 18008KT 36/18 A30 RMK A01 T03610179  RH  034%=      5-min Rain = 0
KES1 151902Z 18010KT 36/18 A30 RMK A01 T03630176  RH  033%=      5-min Rain = 0
KES1 151903Z 17006KT 36/18 A30 RMK A01 T03630178  RH  034%=      5-min Rain = 0
KES1 151904Z 17009KT 36/18 A30 RMK A01 T03640181  RH  034%=      5-min Rain = 0
KES1 151905Z 18010KT 37/18 A30 RMK A01 T03690180  RH  033%=      5-min Rain = 0
KES1 151906Z 17011KT 37/18 A30 RMK A01 T03690180  RH  033%=      5-min Rain = 0
KES1 151907Z 18008G13KT 37/18 A30 RMK A01 T03670180  RH  033%=      5-min Rain = 0
KES1 151908Z 15004KT 37/18 A30 RMK A01 T03650180  RH  034%=      5-min Rain = 0
KES1 151909Z 17004G9KT 36/18 A30 RMK A01 T03640181  RH  034%=      5-min Rain = 0
KES1 151910Z 15012KT 37/18 A30 RMK A01 T03660183  RH  034%=      5-min Rain = 0
KES1 151911Z 17010KT 37/18 A30 RMK A01 T03680182  RH  033%=      5-min Rain = 0
KES1 151912Z 17011KT 37/18 A30 RMK A01 T03690182  RH  033%=      5-min Rain = 0
KES1 151913Z 18010KT 37/18 A30 RMK A01 T03670178  RH  033%=      5-min Rain = 0
KES1 151914Z 16009KT 36/18 A30 RMK A01 T03610180  RH  034%=      5-min Rain = 0
KES1 151915Z 16010KT 36/18 A30 RMK A01 T03640181  RH  034%=      5-min Rain = 0
KES1 151916Z 16010KT 37/18 A30 RMK A01 T03650179  RH  034%=      5-min Rain = 0
KES1 151917Z 15009KT 36/18 A30 RMK A01 T03640181  RH  034%=      5-min Rain = 0
KES1 151918Z 15008KT 37/18 A30 RMK A01 T03660182  RH  034%=      5-min Rain = 0
KES1 151919Z 14010KT 37/18 A2999 RMK A01 T03670182  RH  034%=      5-min Rain = 0
KES1 151920Z 16012KT 37/18 A2999 RMK A01 T03670181  RH  034%=      5-min Rain = 0
KES1 151921Z 16008KT 37/18 A2999 RMK A01 T03650179  RH  033%=      5-min Rain = 0
KES1 151922Z 17010KT 36/18 A2999 RMK A01 T03630181  RH  034%=      5-min Rain = 0
KES1 151923Z 15009KT 37/18 A2999 RMK A01 T03660181  RH  034%=      5-min Rain = 0
KES1 151924Z 14009KT 37/18 A2999 RMK A01 T03690183  RH  034%=      5-min Rain = 0
KES1 151925Z 14008KT 37/18 A2999 RMK A01 T03680180  RH  033%=      5-min Rain = 0
KES1 151926Z 18011KT 37/18 A2999 RMK A01 T03670180  RH  033%=      5-min Rain = 0
KES1 151927Z 18008KT 37/18 A2999 RMK A01 T03660180  RH  034%=      5-min Rain = 0
KES1 151928Z 18010KT 37/18 A2999 RMK A01 T03660179  RH  033%=      5-min Rain = 0
KES1 151929Z 17009KT 37/18 A2999 RMK A01 T03660180  RH  034%=      5-min Rain = 0
KES1 151930Z 16009KT 37/18 A2999 RMK A01 T03680182  RH  034%=      5-min Rain = 0
KES1 151931Z 17007KT 37/18 A2999 RMK A01 T03700178  RH  033%=      5-min Rain = 0
KES1 151932Z 17006KT 37/18 A2999 RMK A01 T03670180  RH  033%=      5-min Rain = 0
KES1 151933Z 16008KT 37/18 A2999 RMK A01 T03660180  RH  034%=      5-min Rain = 0
KES1 151934Z 14010KT 37/18 A2999 RMK A01 T03690180  RH  033%=      5-min Rain = 0
KES1 151935Z 15011KT 37/18 A2999 RMK A01 T03700184  RH  033%=      5-min Rain = 0
KES1 151936Z 15006KT 37/18 A2999 RMK A01 T03720179  RH  032%=      5-min Rain = 0
KES1 151937Z 19002KT 37/18 A2999 RMK A01 T03690180  RH  033%=      5-min Rain = 0
KES1 151938Z 14003KT 37/18 A2999 RMK A01 T03680181  RH  033%=      5-min Rain = 0
KES1 151939Z 18006KT 37/18 A2999 RMK A01 T03700181  RH  033%=      5-min Rain = 0
KES1 151940Z 14006KT 37/18 A2999 RMK A01 T03720184  RH  033%=      5-min Rain = 0
KES1 151941Z 15006KT 37/18 A2999 RMK A01 T03730181  RH  033%=      5-min Rain = 0
KES1 151942Z 16007KT 37/18 A2999 RMK A01 T03730184  RH  033%=      5-min Rain = 0
KES1 151943Z 15006G11KT 38/18 A2999 RMK A01 T03750183  RH  033%=      5-min Rain = 0
KES1 151944Z 16005KT 38/19 A2999 RMK A01 T03750186  RH  033%=      5-min Rain = 0
KES1 151945Z 14011KT 38/18 A2998 RMK A01 T03760184  RH  033%=      5-min Rain = 0
KES1 151946Z 14010KT 37/18 A2998 RMK A01 T03740181  RH  032%=      5-min Rain = 0
KES1 151947Z 15009KT 37/18 A2998 RMK A01 T03710183  RH  033%=      5-min Rain = 0
KES1 151948Z 14012KT 37/18 A2998 RMK A01 T03710182  RH  033%=      5-min Rain = 0
KES1 151949Z 14012KT 37/18 A2998 RMK A01 T03720182  RH  033%=      5-min Rain = 0
KES1 151950Z 13010KT 37/18 A2998 RMK A01 T03710181  RH  033%=      5-min Rain = 0
KES1 151951Z 13009KT 37/18 A2998 RMK A01 T03690180  RH  033%=      5-min Rain = 0
KES1 151952Z 14012KT 37/18 A2998 RMK A01 T03670183  RH  034%=      5-min Rain = 0
KES1 151953Z 16011KT 37/18 A2998 RMK A01 T03700184  RH  034%=      5-min Rain = 0
KES1 151954Z 17008G13KT 37/18 A2998 RMK A01 T03710184  RH  033%=      5-min Rain = 0
KES1 151955Z 15009KT 37/18 A2998 RMK A01 T03720184  RH  033%=      5-min Rain = 0
KES1 151956Z 15011KT 37/18 A2998 RMK A01 T03730184  RH  033%=      5-min Rain = 0
KES1 151957Z 15012KT 37/18 A2998 RMK A01 T03730184  RH  033%=      5-min Rain = 0
KES1 151958Z 15009KT 37/18 A2998 RMK A01 T03730182  RH  033%=      5-min Rain = 0
KES1 151959Z 16006KT 37/18 A2998 RMK A01 T03720183  RH  033%=      5-min Rain = 0
KES1 152000Z 17009KT 37/18 A2998 RMK A01 T03710182  RH  033%=      5-min Rain = 0
KES1 152001Z 18006KT 37/18 A2998 RMK A01 T03690180  RH  033%=      5-min Rain = 0
KES1 152002Z 14005KT 37/18 A2998 RMK A01 T03660180  RH  033%=      5-min Rain = 0
KES1 152003Z 12006KT 37/18 A2998 RMK A01 T03660182  RH  034%=      5-min Rain = 0
KES1 152004Z 13009KT 37/19 A2998 RMK A01 T03700186  RH  034%=      5-min Rain = 0
KES1 152005Z 14011KT 37/18 A2997 RMK A01 T03740184  RH  033%=      5-min Rain = 0
KES1 152006Z 16010KT 38/18 A2997 RMK A01 T03750184  RH  033%=      5-min Rain = 0
KES1 152007Z 18011KT 38/18 A2997 RMK A01 T03760182  RH  032%=      5-min Rain = 0
KES1 152008Z 18012KT 37/18 A2997 RMK A01 T03740182  RH  033%=      5-min Rain = 0
KES1 152009Z 16010KT 38/18 A2997 RMK A01 T03760181  RH  032%=      5-min Rain = 0
KES1 152010Z 14008KT 38/18 A2997 RMK A01 T03750182  RH  032%=      5-min Rain = 0
KES1 152011Z 16006G11KT 37/18 A2997 RMK A01 T03730182  RH  033%=      5-min Rain = 0
KES1 152012Z 19007KT 37/18 A2997 RMK A01 T03740180  RH  032%=      5-min Rain = 0
KES1 152013Z 17007KT 37/18 A2997 RMK A01 T03720180  RH  032%=      5-min Rain = 0
KES1 152014Z 16007KT 37/18 A2997 RMK A01 T03710182  RH  033%=      5-min Rain = 0
KES1 152015Z 16008KT 37/18 A2997 RMK A01 T03730183  RH  033%=      5-min Rain = 0
KES1 152016Z 13007KT 38/18 A2996 RMK A01 T03750183  RH  033%=      5-min Rain = 0
KES1 152017Z 13009KT 38/18 A2996 RMK A01 T03760184  RH  033%=      5-min Rain = 0
KES1 152018Z 13007KT 38/19 A2996 RMK A01 T03760185  RH  033%=      5-min Rain = 0
KES1 152019Z 14011KT 38/18 A2996 RMK A01 T03770183  RH  032%=      5-min Rain = 0
KES1 152020Z 13012KT 38/18 A2996 RMK A01 T03780181  RH  032%=      5-min Rain = 0
KES1 152021Z 16012G17KT 38/18 A2996 RMK A01 T03780179  RH  031%=      5-min Rain = 0
KES1 152022Z 16009KT 38/18 A2996 RMK A01 T03780178  RH  031%=      5-min Rain = 0
KES1 152023Z 15008KT 38/18 A2996 RMK A01 T03780179  RH  031%=      5-min Rain = 0
KES1 152024Z 13010KT 38/18 A2996 RMK A01 T03780182  RH  032%=      5-min Rain = 0
KES1 152025Z 16011KT 38/18 A2996 RMK A01 T03800182  RH  032%=      5-min Rain = 0
KES1 152026Z 16009KT 38/18 A2996 RMK A01 T03800182  RH  031%=      5-min Rain = 0
KES1 152027Z 16011KT 38/18 A2996 RMK A01 T03800182  RH  031%=      5-min Rain = 0
KES1 152028Z 14011KT 38/18 A2996 RMK A01 T03800182  RH  032%=      5-min Rain = 0
KES1 152029Z 15010KT 38/18 A2996 RMK A01 T03790181  RH  031%=      5-min Rain = 0
KES1 152030Z 15008KT 38/18 A2996 RMK A01 T03780183  RH  032%=      5-min Rain = 0
KES1 152031Z 16010G15KT 38/18 A2996 RMK A01 T03790183  RH  032%=      5-min Rain = 0
KES1 152032Z 13010KT 38/18 A2995 RMK A01 T03800181  RH  031%=      5-min Rain = 0
KES1 152033Z 14014KT 38/18 A2995 RMK A01 T03780183  RH  032%=      5-min Rain = 0
KES1 152034Z 15013KT 38/18 A2995 RMK A01 T03790181  RH  032%=      5-min Rain = 0
KES1 152035Z 16008KT 38/18 A2995 RMK A01 T03790179  RH  031%=      5-min Rain = 0
KES1 152036Z 15008KT 38/18 A2995 RMK A01 T03790181  RH  031%=      5-min Rain = 0
KES1 152037Z 15007KT 38/18 A2995 RMK A01 T03790182  RH  032%=      5-min Rain = 0
KES1 152038Z 16008KT 38/18 A2995 RMK A01 T03790181  RH  031%=      5-min Rain = 0
KES1 152039Z 15006KT 38/18 A2995 RMK A01 T03790181  RH  031%=      5-min Rain = 0
KES1 152040Z 17010KT 38/18 A2995 RMK A01 T03800180  RH  031%=      5-min Rain = 0
KES1 152041Z 18006KT 38/18 A2995 RMK A01 T03800179  RH  031%=      5-min Rain = 0
KES1 152042Z 17005KT 38/18 A2995 RMK A01 T03790176  RH  030%=      5-min Rain = 0
KES1 152043Z 14009G14KT 38/18 A2995 RMK A01 T03770179  RH  031%=      5-min Rain = 0
KES1 152044Z 15011KT 38/18 A2995 RMK A01 T03770181  RH  032%=      5-min Rain = 0
KES1 152045Z 14007KT 38/18 A2995 RMK A01 T03770180  RH  032%=      5-min Rain = 0
KES1 152046Z 11006KT 38/18 A2994 RMK A01 T03750179  RH  032%=      5-min Rain = 0
KES1 152047Z 12009KT 37/18 A2994 RMK A01 T03730181  RH  032%=      5-min Rain = 0
KES1 152048Z 17008KT 37/18 A2994 RMK A01 T03740182  RH  032%=      5-min Rain = 0
KES1 152049Z 17009KT 38/18 A2994 RMK A01 T03790183  RH  032%=      5-min Rain = 0
KES1 152050Z 17012KT 38/18 A2994 RMK A01 T03810181  RH  031%=      5-min Rain = 0
KES1 152051Z 18012KT 38/18 A2994 RMK A01 T03770178  RH  031%=      5-min Rain = 0
KES1 152052Z 19008KT 37/18 A2994 RMK A01 T03700176  RH  032%=      5-min Rain = 0
KES1 152053Z 17006KT 37/18 A2994 RMK A01 T03670178  RH  033%=      5-min Rain = 0
KES1 152054Z 16006KT 37/18 A2994 RMK A01 T03680182  RH  033%=      5-min Rain = 0
KES1 152055Z 17007KT 37/18 A2994 RMK A01 T03730181  RH  033%=      5-min Rain = 0
KES1 152056Z 18004KT 38/18 A2994 RMK A01 T03750181  RH  032%=      5-min Rain = 0
KES1 152057Z 19007G18KT 38/18 A2994 RMK A01 T03790181  RH  032%=      5-min Rain = 0
KES1 152058Z 16011G16KT 38/18 A2994 RMK A01 T03810181  RH  031%=      5-min Rain = 0
KES1 152059Z 17009KT 38/18 A2994 RMK A01 T03800182  RH  031%=      5-min Rain = 0
KES1 152100Z 17010KT 38/18 A2994 RMK A01 T03810184  RH  032%=      5-min Rain = 0
KES1 152101Z 18009KT 38/18 A2993 RMK A01 T03810181  RH  031%=      5-min Rain = 0
KES1 152102Z 19012KT 38/18 A2993 RMK A01 T03770178  RH  031%=      5-min Rain = 0
KES1 152103Z 18010KT 38/18 A2993 RMK A01 T03760180  RH  032%=      5-min Rain = 0
KES1 152104Z 18009KT 37/18 A2993 RMK A01 T03740177  RH  032%=      5-min Rain = 0
KES1 152105Z 17009KT 37/18 A2993 RMK A01 T03710177  RH  032%=      5-min Rain = 0
KES1 152106Z 16008KT 37/18 A2993 RMK A01 T03700177  RH  032%=      5-min Rain = 0
KES1 152107Z 16006KT 37/18 A2993 RMK A01 T03700177  RH  032%=      5-min Rain = 0
KES1 152108Z 16005KT 37/18 A2993 RMK A01 T03700178  RH  032%=      5-min Rain = 0
KES1 152109Z 16007KT 37/18 A2993 RMK A01 T03730180  RH  032%=      5-min Rain = 0
KES1 152110Z 14008KT 38/18 A2993 RMK A01 T03780184  RH  032%=      5-min Rain = 0
KES1 152111Z 15004KT 38/18 A2993 RMK A01 T03820183  RH  031%=      5-min Rain = 0
KES1 152112Z 14007KT 38/18 A2993 RMK A01 T03830184  RH  031%=      5-min Rain = 0
KES1 152113Z 13006KT 39/18 A2993 RMK A01 T03850184  RH  031%=      5-min Rain = 0
KES1 152114Z 13007KT 38/18 A2993 RMK A01 T03840183  RH  031%=      5-min Rain = 0
KES1 152115Z 15008KT 38/18 A2993 RMK A01 T03840184  RH  031%=      5-min Rain = 0
KES1 152116Z 13008KT 38/18 A2993 RMK A01 T03840183  RH  031%=      5-min Rain = 0
KES1 152117Z 14011KT 38/18 A2993 RMK A01 T03840184  RH  031%=      5-min Rain = 0
KES1 152118Z 15016KT 38/18 A2993 RMK A01 T03840181  RH  031%=      5-min Rain = 0
KES1 152119Z 14010KT 38/18 A2993 RMK A01 T03810179  RH  031%=      5-min Rain = 0
KES1 152120Z 14011KT 38/18 A2993 RMK A01 T03790180  RH  031%=      5-min Rain = 0
KES1 152121Z 15011KT 38/18 A2992 RMK A01 T03790181  RH  031%=      5-min Rain = 0
KES1 152122Z 15012KT 38/18 A2992 RMK A01 T03810181  RH  031%=      5-min Rain = 0
KES1 152123Z 15013KT 38/18 A2992 RMK A01 T03820179  RH  031%=      5-min Rain = 0
KES1 152124Z 14009KT 38/18 A2992 RMK A01 T03810179  RH  031%=      5-min Rain = 0
KES1 152125Z 14007KT 38/18 A2992 RMK A01 T03790178  RH  031%=      5-min Rain = 0
KES1 152126Z 14011KT 38/18 A2992 RMK A01 T03790180  RH  031%=      5-min Rain = 0
KES1 152127Z 14012KT 38/18 A2992 RMK A01 T03810180  RH  031%=      5-min Rain = 0
KES1 152128Z 14010KT 38/18 A2992 RMK A01 T03810176  RH  030%=      5-min Rain = 0
KES1 152129Z 15008KT 38/18 A2992 RMK A01 T03790177  RH  031%=      5-min Rain = 0
KES1 152130Z 16007KT 38/18 A2992 RMK A01 T03770178  RH  031%=      5-min Rain = 0
KES1 152131Z 16007KT 38/18 A2992 RMK A01 T03770177  RH  031%=      5-min Rain = 0
KES1 152132Z 16010KT 38/18 A2992 RMK A01 T03770178  RH  031%=      5-min Rain = 0
KES1 152133Z 16013KT 38/18 A2992 RMK A01 T03780178  RH  031%=      5-min Rain = 0
KES1 152134Z 15011KT 38/18 A2992 RMK A01 T03790178  RH  031%=      5-min Rain = 0
KES1 152135Z 15010KT 38/18 A2992 RMK A01 T03800179  RH  031%=      5-min Rain = 0
KES1 152136Z 16010KT 38/18 A2992 RMK A01 T03810177  RH  030%=      5-min Rain = 0
KES1 152137Z 19010KT 38/18 A2992 RMK A01 T03800177  RH  031%=      5-min Rain = 0
KES1 152138Z 20008KT 38/18 A2992 RMK A01 T03800177  RH  031%=      5-min Rain = 0
KES1 152139Z 19006KT 38/18 A2991 RMK A01 T03800177  RH  031%=      5-min Rain = 0
KES1 152140Z 19010KT 38/18 A2991 RMK A01 T03810178  RH  030%=      5-min Rain = 0
KES1 152141Z 20008KT 38/18 A2991 RMK A01 T03810177  RH  030%=      5-min Rain = 0
KES1 152142Z 21007KT 38/18 A2991 RMK A01 T03810179  RH  031%=      5-min Rain = 0
KES1 152143Z 21007KT 38/18 A2991 RMK A01 T03830176  RH  030%=      5-min Rain = 0
KES1 152144Z 19007KT 38/18 A2991 RMK A01 T03820177  RH  030%=      5-min Rain = 0
KES1 152145Z 16007KT 38/18 A2991 RMK A01 T03820179  RH  031%=      5-min Rain = 0
KES1 152146Z 15007KT 38/18 A2991 RMK A01 T03830178  RH  030%=      5-min Rain = 0
KES1 152147Z 20007KT 39/18 A2991 RMK A01 T03850180  RH  030%=      5-min Rain = 0
KES1 152148Z 21009KT 39/18 A2991 RMK A01 T03880176  RH  029%=      5-min Rain = 0
KES1 152149Z 20008KT 39/18 A2991 RMK A01 T03860176  RH  029%=      5-min Rain = 0
KES1 152150Z 16010KT 39/18 A2991 RMK A01 T03850176  RH  030%=      5-min Rain = 0
KES1 152151Z 15012KT 38/18 A2991 RMK A01 T03840176  RH  030%=      5-min Rain = 0
KES1 152152Z 15007KT 38/18 A2991 RMK A01 T03830175  RH  030%=      5-min Rain = 0
KES1 152153Z 13009KT 38/18 A2991 RMK A01 T03810176  RH  030%=      5-min Rain = 0
KES1 152154Z 14010KT 38/18 A2991 RMK A01 T03820177  RH  030%=      5-min Rain = 0
KES1 152155Z 16012KT 38/18 A2991 RMK A01 T03820175  RH  030%=      5-min Rain = 0
KES1 152156Z 14009KT 38/18 A2991 RMK A01 T03810177  RH  030%=      5-min Rain = 0
KES1 152157Z 13010G15KT 38/18 A2991 RMK A01 T03820179  RH  031%=      5-min Rain = 0
KES1 152158Z 13014KT 38/18 A2991 RMK A01 T03830175  RH  030%=      5-min Rain = 0
KES1 152159Z 13011KT 38/18 A2991 RMK A01 T03810176  RH  030%=      5-min Rain = 0
KES1 152200Z 14012KT 38/18 A2991 RMK A01 T03820177  RH  030%=      5-min Rain = 0
KES1 152201Z 15013KT 38/18 A2991 RMK A01 T03830177  RH  030%=      5-min Rain = 0
KES1 152202Z 14013KT 38/18 A2991 RMK A01 T03840176  RH  030%=      5-min Rain = 0
KES1 152203Z 15011KT 38/18 A2991 RMK A01 T03830177  RH  030%=      5-min Rain = 0
KES1 152204Z 16012G18KT 38/18 A2991 RMK A01 T03830176  RH  030%=      5-min Rain = 0
KES1 152205Z 16012KT 38/17 A2991 RMK A01 T03820173  RH  029%=      5-min Rain = 0
KES1 152206Z 17008KT 38/17 A2991 RMK A01 T03810174  RH  030%=      5-min Rain = 0
KES1 152207Z 18009KT 38/17 A2991 RMK A01 T03810172  RH  029%=      5-min Rain = 0
KES1 152208Z 17012G19KT 38/17 A2991 RMK A01 T03830174  RH  029%=      5-min Rain = 0
KES1 152209Z 16015G20KT 38/17 A2991 RMK A01 T03840171  RH  029%=      5-min Rain = 0
KES1 152210Z 15010KT 38/17 A2991 RMK A01 T03830171  RH  029%=      5-min Rain = 0
KES1 152211Z 16009KT 38/17 A2991 RMK A01 T03830172  RH  029%=      5-min Rain = 0
KES1 152212Z 15011KT 39/17 A2991 RMK A01 T03850172  RH  029%=      5-min Rain = 0
KES1 152213Z 15013KT 39/17 A2991 RMK A01 T03850172  RH  029%=      5-min Rain = 0
KES1 152214Z 16010KT 38/17 A2991 RMK A01 T03840173  RH  029%=      5-min Rain = 0
KES1 152215Z 15011KT 38/17 A299 RMK A01 T03840172  RH  029%=      5-min Rain = 0
KES1 152216Z 16008KT 38/17 A299 RMK A01 T03830172  RH  029%=      5-min Rain = 0
KES1 152217Z 16007KT 38/17 A299 RMK A01 T03820174  RH  030%=      5-min Rain = 0
KES1 152218Z 14013KT 38/17 A299 RMK A01 T03840173  RH  029%=      5-min Rain = 0
KES1 152219Z 15012KT 38/17 A299 RMK A01 T03840172  RH  029%=      5-min Rain = 0
KES1 152220Z 17008KT 38/17 A299 RMK A01 T03840172  RH  029%=      5-min Rain = 0
KES1 152221Z 17014KT 38/17 A299 RMK A01 T03830171  RH  029%=      5-min Rain = 0
KES1 152222Z 15011KT 38/17 A299 RMK A01 T03820170  RH  029%=      5-min Rain = 0
KES1 152223Z 16012KT 38/17 A299 RMK A01 T03810172  RH  029%=      5-min Rain = 0
KES1 152224Z 17008KT 38/17 A299 RMK A01 T03820171  RH  029%=      5-min Rain = 0
KES1 152225Z 19010KT 38/17 A299 RMK A01 T03820169  RH  029%=      5-min Rain = 0
KES1 152226Z 18008KT 38/17 A299 RMK A01 T03810170  RH  029%=      5-min Rain = 0
KES1 152227Z 17009KT 38/17 A299 RMK A01 T03830171  RH  029%=      5-min Rain = 0
KES1 152228Z 16009KT 39/17 A299 RMK A01 T03850171  RH  029%=      5-min Rain = 0
KES1 152229Z 17010KT 39/17 A299 RMK A01 T03850172  RH  029%=      5-min Rain = 0
KES1 152230Z 17009KT 38/17 A299 RMK A01 T03830170  RH  029%=      5-min Rain = 0
KES1 152231Z 18007KT 38/17 A299 RMK A01 T03780168  RH  029%=      5-min Rain = 0
KES1 152232Z 14004KT 38/17 A299 RMK A01 T03770167  RH  029%=      5-min Rain = 0
KES1 152233Z 17005KT 38/17 A299 RMK A01 T03750168  RH  030%=      5-min Rain = 0
KES1 152234Z 19006KT 37/17 A299 RMK A01 T03740169  RH  030%=      5-min Rain = 0
KES1 152235Z 18006KT 38/17 A299 RMK A01 T03760171  RH  030%=      5-min Rain = 0
KES1 152236Z 15010KT 38/17 A299 RMK A01 T03780172  RH  030%=      5-min Rain = 0
KES1 152237Z 14012KT 38/17 A299 RMK A01 T03760169  RH  030%=      5-min Rain = 0
KES1 152238Z 15009KT 37/17 A299 RMK A01 T03740171  RH  030%=      5-min Rain = 0
KES1 152239Z 15009KT 37/17 A299 RMK A01 T03730170  RH  030%=      5-min Rain = 0
KES1 152240Z 15010KT 37/17 A299 RMK A01 T03720169  RH  030%=      5-min Rain = 0
KES1 152241Z 16010KT 37/17 A299 RMK A01 T03710168  RH  030%=      5-min Rain = 0
KES1 152242Z 16009KT 37/17 A299 RMK A01 T03700168  RH  031%=      5-min Rain = 0
KES1 152243Z 16007KT 37/17 A299 RMK A01 T03700170  RH  031%=      5-min Rain = 0
KES1 152244Z 14006KT 37/17 A299 RMK A01 T03700170  RH  031%=      5-min Rain = 0
KES1 152245Z 13008KT 37/17 A299 RMK A01 T03700171  RH  031%=      5-min Rain = 0
KES1 152246Z 14010KT 37/17 A299 RMK A01 T03710171  RH  031%=      5-min Rain = 0
KES1 152247Z 13010KT 37/17 A299 RMK A01 T03720169  RH  030%=      5-min Rain = 0
KES1 152248Z 13007KT 37/17 A299 RMK A01 T03720168  RH  030%=      5-min Rain = 0
KES1 152249Z 13008KT 37/17 A299 RMK A01 T03730169  RH  030%=      5-min Rain = 0
KES1 152250Z 13008KT 37/17 A2989 RMK A01 T03730169  RH  030%=      5-min Rain = 0
KES1 152251Z 15007KT 37/17 A2989 RMK A01 T03740172  RH  031%=      5-min Rain = 0
KES1 152252Z 16007KT 37/17 A2989 RMK A01 T03740171  RH  030%=      5-min Rain = 0
KES1 152253Z 16006KT 37/17 A2989 RMK A01 T03740172  RH  030%=      5-min Rain = 0
KES1 152254Z 16008KT 37/17 A2989 RMK A01 T03730169  RH  030%=      5-min Rain = 0
KES1 152255Z 16009KT 37/17 A2989 RMK A01 T03720169  RH  030%=      5-min Rain = 0
KES1 152256Z 16008KT 37/17 A2989 RMK A01 T03710169  RH  030%=      5-min Rain = 0
KES1 152257Z 15010KT 37/17 A2989 RMK A01 T03700170  RH  031%=      5-min Rain = 0
KES1 152258Z 15009KT 37/17 A2989 RMK A01 T03690170  RH  031%=      5-min Rain = 0
KES1 152259Z 15009KT 37/17 A2989 RMK A01 T03680171  RH  031%=      5-min Rain = 0
KES1 152300Z 16008KT 37/17 A2989 RMK A01 T03670169  RH  031%=      5-min Rain = 0
KES1 152301Z 15009KT 37/17 A2989 RMK A01 T03670170  RH  031%=      5-min Rain = 0
KES1 152302Z 14009KT 37/17 A2989 RMK A01 T03660170  RH  031%=      5-min Rain = 0
KES1 152303Z 14010KT 37/17 A2989 RMK A01 T03660170  RH  031%=      5-min Rain = 0
KES1 152304Z 15008KT 37/17 A2989 RMK A01 T03660170  RH  031%=      5-min Rain = 0
KES1 152305Z 16007KT 37/17 A2989 RMK A01 T03650170  RH  032%=      5-min Rain = 0
KES1 152306Z 16007KT 37/17 A2989 RMK A01 T03650170  RH  032%=      5-min Rain = 0
KES1 152307Z 16008KT 37/17 A2989 RMK A01 T03650170  RH  032%=      5-min Rain = 0
KES1 152308Z 16007KT 36/17 A2989 RMK A01 T03640171  RH  032%=      5-min Rain = 0
KES1 152309Z 16006KT 36/17 A2989 RMK A01 T03640172  RH  032%=      5-min Rain = 0
KES1 152310Z 16007KT 36/17 A2989 RMK A01 T03630172  RH  032%=      5-min Rain = 0
KES1 152311Z 16008KT 36/17 A2989 RMK A01 T03630172  RH  032%=      5-min Rain = 0
KES1 152312Z 15007KT 36/17 A2989 RMK A01 T03620171  RH  032%=      5-min Rain = 0
KES1 152313Z 15007KT 36/17 A2989 RMK A01 T03620171  RH  032%=      5-min Rain = 0
KES1 152314Z 15006KT 36/17 A2989 RMK A01 T03620170  RH  032%=      5-min Rain = 0
KES1 152315Z 16006KT 36/17 A2989 RMK A01 T03610171  RH  033%=      5-min Rain = 0
KES1 152316Z 16006KT 36/17 A2989 RMK A01 T03610171  RH  033%=      5-min Rain = 0
KES1 152317Z 17006KT 36/17 A2989 RMK A01 T03610171  RH  033%=      5-min Rain = 0
KES1 152318Z 16007KT 36/17 A2989 RMK A01 T03610172  RH  033%=      5-min Rain = 0
KES1 152319Z 17006KT 36/17 A2989 RMK A01 T03610171  RH  033%=      5-min Rain = 0
KES1 152320Z 17006KT 36/17 A2989 RMK A01 T03610171  RH  033%=      5-min Rain = 0
KES1 152321Z 16008KT 36/17 A2989 RMK A01 T03610170  RH  033%=      5-min Rain = 0
KES1 152322Z 16011KT 36/17 A2989 RMK A01 T03610169  RH  032%=      5-min Rain = 0
KES1 152323Z 14009KT 36/17 A2989 RMK A01 T03610169  RH  032%=      5-min Rain = 0
KES1 152324Z 15007KT 36/17 A2989 RMK A01 T03600170  RH  033%=      5-min Rain = 0
KES1 152325Z 15006KT 36/17 A2989 RMK A01 T03600171  RH  033%=      5-min Rain = 0
KES1 152326Z 15006KT 36/17 A2989 RMK A01 T03590172  RH  033%=      5-min Rain = 0
KES1 152327Z 15005KT 36/17 A2989 RMK A01 T03580172  RH  033%=      5-min Rain = 0
KES1 152328Z 15007KT 36/17 A2989 RMK A01 T03580172  RH  033%=      5-min Rain = 0
KES1 152329Z 14006KT 36/17 A2989 RMK A01 T03570171  RH  033%=      5-min Rain = 0
KES1 152330Z 14007KT 36/17 A2989 RMK A01 T03580170  RH  033%=      5-min Rain = 0
KES1 152331Z 14008KT 36/17 A2989 RMK A01 T03580169  RH  033%=      5-min Rain = 0
KES1 152332Z 14008KT 36/17 A2989 RMK A01 T03580169  RH  033%=      5-min Rain = 0
KES1 152333Z 15007KT 36/17 A2989 RMK A01 T03580169  RH  033%=      5-min Rain = 0
KES1 152334Z 16008KT 36/17 A2989 RMK A01 T03580171  RH  033%=      5-min Rain = 0
KES1 152335Z 15008KT 36/17 A2989 RMK A01 T03580171  RH  033%=      5-min Rain = 0
KES1 152336Z 15009KT 36/17 A2989 RMK A01 T03570171  RH  033%=      5-min Rain = 0
KES1 152337Z 15007KT 36/17 A2989 RMK A01 T03570172  RH  034%=      5-min Rain = 0
KES1 152338Z 15008KT 36/17 A2989 RMK A01 T03560172  RH  034%=      5-min Rain = 0
KES1 152339Z 14007KT 36/17 A2989 RMK A01 T03550173  RH  034%=      5-min Rain = 0
KES1 152340Z 14007KT 35/17 A2989 RMK A01 T03540174  RH  034%=      5-min Rain = 0
KES1 152341Z 14008KT 35/17 A2988 RMK A01 T03530174  RH  035%=      5-min Rain = 0
KES1 152342Z 15007KT 35/17 A2988 RMK A01 T03520173  RH  035%=      5-min Rain = 0
KES1 152343Z 15007KT 35/17 A2988 RMK A01 T03520174  RH  035%=      5-min Rain = 0
KES1 152344Z 15006KT 35/18 A2989 RMK A01 T03510175  RH  035%=      5-min Rain = 0
KES1 152345Z 15006KT 35/18 A2989 RMK A01 T03500176  RH  036%=      5-min Rain = 0
KES1 152346Z 15006KT 35/18 A2989 RMK A01 T03490178  RH  036%=      5-min Rain = 0
KES1 152347Z 15005KT 35/18 A2989 RMK A01 T03480179  RH  037%=      5-min Rain = 0
KES1 152348Z 15005KT 35/18 A2989 RMK A01 T03470180  RH  037%=      5-min Rain = 0
KES1 152349Z 15006KT 35/18 A2989 RMK A01 T03460180  RH  038%=      5-min Rain = 0
KES1 152350Z 16006KT 35/18 A2989 RMK A01 T03450181  RH  038%=      5-min Rain = 0
KES1 152351Z 16007KT 34/18 A2989 RMK A01 T03440182  RH  038%=      5-min Rain = 0
KES1 152352Z 15006KT 34/18 A2988 RMK A01 T03420182  RH  039%=      5-min Rain = 0
KES1 152353Z 16006KT 34/18 A2988 RMK A01 T03410183  RH  039%=      5-min Rain = 0
KES1 152354Z 15006KT 34/18 A2988 RMK A01 T03400183  RH  039%=      5-min Rain = 0
KES1 152355Z 15007KT 34/18 A2988 RMK A01 T03390182  RH  039%=      5-min Rain = 0
KES1 152356Z 15006KT 34/18 A2988 RMK A01 T03390183  RH  040%=      5-min Rain = 0
KES1 152357Z 16006KT 34/19 A2989 RMK A01 T03380185  RH  040%=      5-min Rain = 0
KES1 152358Z 16006KT 34/18 A2989 RMK A01 T03370184  RH  041%=      5-min Rain = 0
KES1 152359Z 15007KT 34/18 A2989 RMK A01 T03370184  RH  041%=      5-min Rain = 0
KES1 160000Z 15005KT 34/18 A2989 RMK A01 T03360183  RH  040%=      5-min Rain = 0
KES1 160001Z 16007KT 34/18 A2989 RMK A01 T03360183  RH  040%=      5-min Rain = 0
KES1 160002Z 16006KT 34/18 A2989 RMK A01 T03360182  RH  040%=      5-min Rain = 0
KES1 160003Z 16006KT 34/18 A2989 RMK A01 T03360181  RH  040%=      5-min Rain = 0
KES1 160004Z 16006KT 34/18 A2989 RMK A01 T03370180  RH  040%=      5-min Rain = 0
KES1 160005Z 16006KT 34/18 A2989 RMK A01 T03370180  RH  039%=      5-min Rain = 0
KES1 160006Z 16006KT 34/18 A2989 RMK A01 T03380179  RH  039%=      5-min Rain = 0
KES1 160007Z 16005KT 34/18 A2988 RMK A01 T03380179  RH  039%=      5-min Rain = 0
KES1 160008Z 17005KT 34/18 A2988 RMK A01 T03390180  RH  039%=      5-min Rain = 0
KES1 160009Z 16004KT 34/18 A2988 RMK A01 T03390180  RH  039%=      5-min Rain = 0
KES1 160010Z 16004KT 34/18 A2988 RMK A01 T03380180  RH  039%=      5-min Rain = 0
KES1 160011Z 16005KT 34/18 A2988 RMK A01 T03380180  RH  039%=      5-min Rain = 0
KES1 160012Z 17003KT 34/18 A2988 RMK A01 T03380179  RH  039%=      5-min Rain = 0
KES1 160013Z 15004KT 34/18 A2988 RMK A01 T03380181  RH  039%=      5-min Rain = 0
KES1 160014Z 15005KT 34/18 A2988 RMK A01 T03370181  RH  040%=      5-min Rain = 0
KES1 160015Z 15005KT 34/18 A2988 RMK A01 T03360182  RH  040%=      5-min Rain = 0
KES1 160016Z 15005KT 34/18 A2988 RMK A01 T03350183  RH  041%=      5-min Rain = 0
KES1 160017Z 16005KT 33/18 A2988 RMK A01 T03340184  RH  041%=      5-min Rain = 0
KES1 160018Z 16004KT 33/18 A2988 RMK A01 T03330183  RH  041%=      5-min Rain = 0
KES1 160019Z 16005KT 33/18 A2988 RMK A01 T03320183  RH  041%=      5-min Rain = 0
KES1 160020Z 16005KT 33/18 A2988 RMK A01 T03320182  RH  041%=      5-min Rain = 0
KES1 160021Z 16005KT 33/18 A2988 RMK A01 T03320182  RH  041%=      5-min Rain = 0
KES1 160022Z 15005KT 33/18 A2988 RMK A01 T03320181  RH  041%=      5-min Rain = 0
KES1 160023Z 15005KT 33/18 A2988 RMK A01 T03320181  RH  041%=      5-min Rain = 0
KES1 160024Z 16005KT 33/18 A2988 RMK A01 T03320181  RH  041%=      5-min Rain = 0
KES1 160025Z 15004KT 33/18 A2988 RMK A01 T03320183  RH  041%=      5-min Rain = 0
KES1 160026Z 15004KT 33/18 A2988 RMK A01 T03320182  RH  041%=      5-min Rain = 0
KES1 160027Z 16004KT 33/18 A2988 RMK A01 T03320183  RH  041%=      5-min Rain = 0
KES1 160028Z 16004KT 33/18 A2988 RMK A01 T03310182  RH  041%=      5-min Rain = 0
KES1 160029Z 16004KT 33/18 A2988 RMK A01 T03310181  RH  041%=      5-min Rain = 0
KES1 160030Z 17004KT 33/18 A2988 RMK A01 T03310180  RH  041%=      5-min Rain = 0
KES1 160031Z 17004KT 33/18 A2988 RMK A01 T03320179  RH  040%=      5-min Rain = 0
KES1 160032Z 18004KT 33/18 A2988 RMK A01 T03330181  RH  040%=      5-min Rain = 0
KES1 160033Z 18005KT 33/18 A2988 RMK A01 T03330181  RH  040%=      5-min Rain = 0
KES1 160034Z 19004KT 33/18 A2988 RMK A01 T03330183  RH  041%=      5-min Rain = 0
KES1 160035Z 20003KT 33/18 A2988 RMK A01 T03320183  RH  041%=      5-min Rain = 0
KES1 160036Z 20003KT 33/18 A2989 RMK A01 T03310183  RH  042%=      5-min Rain = 0
KES1 160037Z 20003KT 33/18 A2989 RMK A01 T03310183  RH  042%=      5-min Rain = 0
KES1 160038Z 19001KT 33/18 A2989 RMK A01 T03300184  RH  042%=      5-min Rain = 0
KES1 160039Z 26000KT 33/19 A2989 RMK A01 T03300189  RH  043%=      5-min Rain = 0
KES1 160040Z 25000KT 33/19 A2989 RMK A01 T03290192  RH  044%=      5-min Rain = 0
KES1 160041Z 00000KT 33/19 A2989 RMK A01 T03280194  RH  045%=      5-min Rain = 0
KES1 160042Z 15000KT 33/20 A2989 RMK A01 T03270196  RH  046%=      5-min Rain = 0
KES1 160043Z 17001KT 33/20 A2989 RMK A01 T03270195  RH  046%=      5-min Rain = 0
KES1 160044Z 17002KT 33/19 A2989 RMK A01 T03260190  RH  044%=      5-min Rain = 0
KES1 160045Z 17003KT 33/19 A2989 RMK A01 T03260185  RH  043%=      5-min Rain = 0
KES1 160046Z 17004KT 33/18 A2989 RMK A01 T03260182  RH  042%=      5-min Rain = 0
KES1 160047Z 17005KT 33/18 A2988 RMK A01 T03280181  RH  042%=      5-min Rain = 0
KES1 160048Z 17005KT 33/18 A2988 RMK A01 T03290180  RH  041%=      5-min Rain = 0
KES1 160049Z 17006KT 33/18 A2988 RMK A01 T03310180  RH  041%=      5-min Rain = 0
KES1 160050Z 16004KT 33/18 A2988 RMK A01 T03310181  RH  041%=      5-min Rain = 0
KES1 160051Z 16006KT 33/18 A2988 RMK A01 T03320180  RH  041%=      5-min Rain = 0
KES1 160052Z 17008KT 33/18 A2989 RMK A01 T03330178  RH  040%=      5-min Rain = 0
KES1 160053Z 16007KT 34/18 A2989 RMK A01 T03350177  RH  039%=      5-min Rain = 0
KES1 160054Z 16006KT 34/18 A2989 RMK A01 T03370178  RH  039%=      5-min Rain = 0
KES1 160055Z 17007KT 34/18 A2989 RMK A01 T03380177  RH  038%=      5-min Rain = 0
KES1 160056Z 16007KT 34/18 A2989 RMK A01 T03390176  RH  038%=      5-min Rain = 0
KES1 160057Z 17007KT 34/18 A2989 RMK A01 T03400176  RH  038%=      5-min Rain = 0
KES1 160058Z 16007KT 34/18 A2989 RMK A01 T03400175  RH  038%=      5-min Rain = 0
KES1 160059Z 17006KT 34/18 A2989 RMK A01 T03410175  RH  037%=      5-min Rain = 0
KES1 160100Z 16007KT 34/18 A2989 RMK A01 T03410176  RH  037%=      5-min Rain = 0
KES1 160101Z 17005KT 34/18 A2989 RMK A01 T03410177  RH  038%=      5-min Rain = 0
KES1 160102Z 17006KT 34/18 A2989 RMK A01 T03410176  RH  038%=      5-min Rain = 0
KES1 160103Z 17006KT 34/18 A2989 RMK A01 T03400176  RH  038%=      5-min Rain = 0
KES1 160104Z 17005KT 34/18 A2989 RMK A01 T03400176  RH  038%=      5-min Rain = 0
KES1 160105Z 17006KT 34/18 A2989 RMK A01 T03400176  RH  038%=      5-min Rain = 0
KES1 160106Z 17006KT 34/18 A2989 RMK A01 T03410176  RH  038%=      5-min Rain = 0
KES1 160107Z 17008KT 34/18 A2989 RMK A01 T03400175  RH  037%=      5-min Rain = 0
KES1 160108Z 17007KT 34/18 A2989 RMK A01 T03410175  RH  037%=      5-min Rain = 0
KES1 160109Z 17007KT 34/18 A2989 RMK A01 T03410175  RH  037%=      5-min Rain = 0
KES1 160110Z 17007KT 34/18 A2989 RMK A01 T03410175  RH  037%=      5-min Rain = 0
KES1 160111Z 17008KT 34/18 A2989 RMK A01 T03410175  RH  037%=      5-min Rain = 0
KES1 160112Z 17007KT 34/18 A2989 RMK A01 T03410175  RH  037%=      5-min Rain = 0
KES1 160113Z 17006KT 34/18 A2989 RMK A01 T03400175  RH  038%=      5-min Rain = 0
KES1 160114Z 17007KT 34/18 A2989 RMK A01 T03400175  RH  038%=      5-min Rain = 0
KES1 160115Z 18007KT 34/18 A2989 RMK A01 T03400175  RH  038%=      5-min Rain = 0
KES1 160116Z 18006KT 34/18 A2989 RMK A01 T03390175  RH  038%=      5-min Rain = 0
KES1 160117Z 18006KT 34/18 A2989 RMK A01 T03390176  RH  038%=      5-min Rain = 0
KES1 160118Z 17007KT 34/18 A299 RMK A01 T03380176  RH  038%=      5-min Rain = 0
KES1 160119Z 18007KT 34/18 A299 RMK A01 T03380175  RH  038%=      5-min Rain = 0
KES1 160120Z 18005KT 34/18 A299 RMK A01 T03380175  RH  038%=      5-min Rain = 0
KES1 160121Z 18006KT 34/18 A299 RMK A01 T03380175  RH  038%=      5-min Rain = 0
KES1 160122Z 17005KT 34/18 A299 RMK A01 T03380175  RH  038%=      5-min Rain = 0
KES1 160123Z 17005KT 34/18 A299 RMK A01 T03380175  RH  038%=      5-min Rain = 0
KES1 160124Z 18004KT 34/18 A299 RMK A01 T03380176  RH  038%=      5-min Rain = 0
KES1 160125Z 17004KT 34/18 A299 RMK A01 T03370176  RH  038%=      5-min Rain = 0
KES1 160126Z 17004KT 34/18 A299 RMK A01 T03370175  RH  038%=      5-min Rain = 0
KES1 160127Z 17005KT 34/18 A299 RMK A01 T03360175  RH  038%=      5-min Rain = 0
KES1 160128Z 17004KT 34/18 A2989 RMK A01 T03360176  RH  038%=      5-min Rain = 0
KES1 160129Z 17004KT 34/18 A2989 RMK A01 T03360176  RH  039%=      5-min Rain = 0
KES1 160130Z 16003KT 34/18 A2989 RMK A01 T03350176  RH  039%=      5-min Rain = 0
KES1 160131Z 16004KT 33/18 A2989 RMK A01 T03340177  RH  039%=      5-min Rain = 0
KES1 160132Z 16003KT 33/18 A2989 RMK A01 T03330176  RH  039%=      5-min Rain = 0
KES1 160133Z 16004KT 33/18 A2989 RMK A01 T03330177  RH  040%=      5-min Rain = 0
KES1 160134Z 17003KT 33/18 A2989 RMK A01 T03320177  RH  040%=      5-min Rain = 0
KES1 160135Z 17003KT 33/18 A2989 RMK A01 T03310177  RH  040%=      5-min Rain = 0
KES1 160136Z 19003KT 33/18 A2989 RMK A01 T03310178  RH  040%=      5-min Rain = 0
KES1 160137Z 21003KT 33/18 A299 RMK A01 T03300178  RH  040%=      5-min Rain = 0
KES1 160138Z 24004KT 33/18 A299 RMK A01 T03290179  RH  041%=      5-min Rain = 0
KES1 160139Z 26005KT 33/18 A299 RMK A01 T03280181  RH  042%=      5-min Rain = 0
KES1 160140Z 27007KT 33/18 A299 RMK A01 T03260181  RH  042%=      5-min Rain = 0
KES1 160141Z 27009KT 32/19 A2991 RMK A01 T03240188  RH  045%=      5-min Rain = 0
KES1 160142Z 26010KT 32/19 A2991 RMK A01 T03200194  RH  047%=      5-min Rain = 0
KES1 160143Z 25009KT 32/20 A2991 RMK A01 T03160195  RH  049%=      5-min Rain = 0
KES1 160144Z 23007KT 31/19 A2991 RMK A01 T03140192  RH  048%=      5-min Rain = 0
KES1 160145Z 24006KT 31/19 A2991 RMK A01 T03130189  RH  048%=      5-min Rain = 0
KES1 160146Z 25010G15KT 31/19 A2991 RMK A01 T03120187  RH  047%=      5-min Rain = 0
KES1 160147Z 25014KT 31/18 A2991 RMK A01 T03110175  RH  044%=      5-min Rain = 0
KES1 160148Z 25011KT 31/17 A2991 RMK A01 T03100168  RH  042%=      5-min Rain = 0
KES1 160149Z 24011KT 31/17 A2991 RMK A01 T03100168  RH  043%=      5-min Rain = 0
KES1 160150Z 24008KT 31/16 A2991 RMK A01 T03090163  RH  042%=      5-min Rain = 0
KES1 160151Z 24007KT 31/16 A2991 RMK A01 T03070159  RH  041%=      5-min Rain = 0
KES1 160152Z 23004KT 31/16 A2991 RMK A01 T03050158  RH  041%=      5-min Rain = 0
KES1 160153Z 23005KT 30/16 A2991 RMK A01 T03040157  RH  041%=      5-min Rain = 0
KES1 160154Z 22007KT 30/16 A2991 RMK A01 T03030155  RH  041%=      5-min Rain = 0
KES1 160155Z 23007KT 30/15 A2991 RMK A01 T03020154  RH  041%=      5-min Rain = 0
KES1 160156Z 24008KT 30/15 A2991 RMK A01 T03010154  RH  041%=      5-min Rain = 0
KES1 160157Z 23011KT 30/15 A2991 RMK A01 T02990154  RH  041%=      5-min Rain = 0
KES1 160158Z 23008KT 30/15 A2991 RMK A01 T02970153  RH  042%=      5-min Rain = 0
KES1 160159Z 23008KT 30/16 A2991 RMK A01 T02960155  RH  042%=      5-min Rain = 0
KES1 160200Z 23010KT 29/16 A2991 RMK A01 T02940156  RH  043%=      5-min Rain = 0
KES1 160201Z 23012KT 29/16 A2991 RMK A01 T02900156  RH  044%=      5-min Rain = 0
KES1 160202Z 22010KT 29/16 A299 RMK A01 T02870155  RH  045%=      5-min Rain = 0
KES1 160203Z 23011KT 29/16 A299 RMK A01 T02850155  RH  045%=      5-min Rain = 0
KES1 160204Z 22012KT 28/15 A299 RMK A01 T02840154  RH  045%=      5-min Rain = 0
KES1 160205Z 22009KT 28/16 A299 RMK A01 T02840155  RH  045%=      5-min Rain = 0
KES1 160206Z 21008KT 28/15 A299 RMK A01 T02830154  RH  045%=      5-min Rain = 0
KES1 160207Z 19009KT 28/15 A299 RMK A01 T02830154  RH  045%=      5-min Rain = 0
KES1 160208Z 18007KT 28/16 A299 RMK A01 T02830155  RH  046%=      5-min Rain = 0
KES1 160209Z 18006KT 28/16 A299 RMK A01 T02830156  RH  046%=      5-min Rain = 0
KES1 160210Z 17005KT 28/16 A299 RMK A01 T02820156  RH  046%=      5-min Rain = 0
KES1 160211Z 19007KT 28/16 A2991 RMK A01 T02820156  RH  046%=      5-min Rain = 0
KES1 160212Z 20007KT 28/16 A2991 RMK A01 T02810157  RH  047%=      5-min Rain = 0
KES1 160213Z 21008KT 28/16 A2991 RMK A01 T02800157  RH  047%=      5-min Rain = 0
KES1 160214Z 21009KT 28/16 A2991 RMK A01 T02800156  RH  047%=      5-min Rain = 0
KES1 160215Z 21009KT 28/15 A2991 RMK A01 T02800153  RH  046%=      5-min Rain = 0
KES1 160216Z 19007KT 28/15 A2991 RMK A01 T02800153  RH  046%=      5-min Rain = 0
KES1 160217Z 19007KT 28/15 A2991 RMK A01 T02810152  RH  045%=      5-min Rain = 0
KES1 160218Z 19006KT 28/15 A2991 RMK A01 T02810151  RH  045%=      5-min Rain = 0
KES1 160219Z 19009KT 28/15 A2991 RMK A01 T02820150  RH  044%=      5-min Rain = 0
KES1 160220Z 19008KT 28/15 A2991 RMK A01 T02830148  RH  044%=      5-min Rain = 0
KES1 160221Z 19009KT 29/14 A2991 RMK A01 T02850144  RH  042%=      5-min Rain = 0
KES1 160222Z 19009KT 29/14 A2991 RMK A01 T02860144  RH  042%=      5-min Rain = 0
KES1 160223Z 21007KT 29/14 A2991 RMK A01 T02870144  RH  042%=      5-min Rain = 0
KES1 160224Z 21008KT 29/14 A2992 RMK A01 T02870144  RH  042%=      5-min Rain = 0
KES1 160225Z 20007KT 29/14 A2992 RMK A01 T02870144  RH  042%=      5-min Rain = 0
KES1 160226Z 20007KT 29/15 A2992 RMK A01 T02870145  RH  042%=      5-min Rain = 0
KES1 160227Z 21008KT 29/15 A2992 RMK A01 T02870145  RH  042%=      5-min Rain = 0
KES1 160228Z 21007KT 29/15 A2992 RMK A01 T02880146  RH  042%=      5-min Rain = 0
KES1 160229Z 21010KT 29/15 A2992 RMK A01 T02880147  RH  042%=      5-min Rain = 0
KES1 160230Z 21008KT 29/15 A2992 RMK A01 T02890149  RH  042%=      5-min Rain = 0
KES1 160231Z 21008KT 29/15 A2992 RMK A01 T02890150  RH  043%=      5-min Rain = 0
KES1 160232Z 22008KT 29/15 A2992 RMK A01 T02890151  RH  043%=      5-min Rain = 0
KES1 160233Z 22009KT 29/15 A2992 RMK A01 T02890153  RH  044%=      5-min Rain = 0
KES1 160234Z 22007KT 29/16 A2992 RMK A01 T02900155  RH  044%=      5-min Rain = 0
KES1 160235Z 23009KT 29/16 A2992 RMK A01 T02910157  RH  044%=      5-min Rain = 0
KES1 160236Z 23010KT 29/16 A2992 RMK A01 T02920158  RH  044%=      5-min Rain = 0
KES1 160237Z 24008KT 29/16 A2993 RMK A01 T02930160  RH  045%=      5-min Rain = 0
KES1 160238Z 25009KT 29/16 A2993 RMK A01 T02930160  RH  045%=      5-min Rain = 0
KES1 160239Z 24018G25KT 29/16 A2993 RMK A01 T02920160  RH  045%=      5-min Rain = 0
KES1 160240Z 24017G25KT 29/16 A2993 RMK A01 T02870161  RH  046%=      5-min Rain = 0
KES1 160241Z 24017KT 28/16 A2994 RMK A01 T02810161  RH  048%=      5-min Rain = 0
KES1 160242Z 23014G19KT 28/16 A2994 RMK A01 T02770161  RH  049%=      5-min Rain = 0
KES1 160243Z 23011KT 27/16 A2994 RMK A01 T02740161  RH  050%=      5-min Rain = 0
KES1 160244Z 23012KT 27/16 A2994 RMK A01 T02720160  RH  051%=      5-min Rain = 0
KES1 160245Z 23013KT 27/16 A2994 RMK A01 T02690160  RH  051%=      5-min Rain = 0
KES1 160246Z 22010KT 27/16 A2994 RMK A01 T02680160  RH  052%=      5-min Rain = 0
KES1 160247Z 23009KT 27/16 A2995 RMK A01 T02670160  RH  052%=      5-min Rain = 0
KES1 160248Z 23013G18KT 27/16 A2995 RMK A01 T02660159  RH  052%=      5-min Rain = 0
KES1 160249Z 23015KT 26/16 A2995 RMK A01 T02640157  RH  051%=      5-min Rain = 0
KES1 160250Z 24012G18KT 26/16 A2995 RMK A01 T02630156  RH  052%=      5-min Rain = 0
KES1 160251Z 24009G14KT 26/16 A2995 RMK A01 T02630157  RH  052%=      5-min Rain = 0
KES1 160252Z 23013KT 26/16 A2995 RMK A01 T02610156  RH  052%=      5-min Rain = 0
KES1 160253Z 24014KT 26/16 A2995 RMK A01 T02610156  RH  052%=      5-min Rain = 0
KES1 160254Z 23013G18KT 26/16 A2995 RMK A01 T02600156  RH  052%=      5-min Rain = 0
KES1 160255Z 24014G20KT 26/16 A2995 RMK A01 T02600156  RH  053%=      5-min Rain = 0
KES1 160256Z 23014KT 26/16 A2995 RMK A01 T02600156  RH  052%=      5-min Rain = 0
KES1 160257Z 22010KT 26/16 A2994 RMK A01 T02610156  RH  052%=      5-min Rain = 0
KES1 160258Z 23009KT 26/16 A2994 RMK A01 T02610156  RH  052%=      5-min Rain = 0
KES1 160259Z 23015G22KT 26/16 A2994 RMK A01 T02610156  RH  052%=      5-min Rain = 0
KES1 160300Z 23014KT 26/16 A2995 RMK A01 T02620155  RH  052%=      5-min Rain = 0
KES1 160301Z 23013G19KT 26/16 A2995 RMK A01 T02630155  RH  052%=      5-min Rain = 0
KES1 160302Z 23013KT 26/15 A2995 RMK A01 T02630154  RH  051%=      5-min Rain = 0
KES1 160303Z 23011G16KT 27/15 A2995 RMK A01 T02650154  RH  051%=      5-min Rain = 0
KES1 160304Z 23010KT 27/16 A2995 RMK A01 T02650155  RH  051%=      5-min Rain = 0
KES1 160305Z 23012KT 27/16 A2995 RMK A01 T02650155  RH  051%=      5-min Rain = 0
KES1 160306Z 23009KT 27/16 A2995 RMK A01 T02650156  RH  051%=      5-min Rain = 0
KES1 160307Z 24010KT 26/16 A2995 RMK A01 T02640157  RH  052%=      5-min Rain = 0
KES1 160308Z 24010KT 26/16 A2995 RMK A01 T02640157  RH  052%=      5-min Rain = 0
KES1 160309Z 24011KT 26/16 A2995 RMK A01 T02630157  RH  052%=      5-min Rain = 0
KES1 160310Z 24010KT 26/16 A2995 RMK A01 T02630158  RH  052%=      5-min Rain = 0
KES1 160311Z 25009KT 26/16 A2995 RMK A01 T02630158  RH  053%=      5-min Rain = 0
KES1 160312Z 24010KT 26/16 A2995 RMK A01 T02620158  RH  053%=      5-min Rain = 0
KES1 160313Z 24008KT 26/16 A2995 RMK A01 T02620159  RH  053%=      5-min Rain = 0
KES1 160314Z 24008KT 26/16 A2995 RMK A01 T02620160  RH  053%=      5-min Rain = 0
KES1 160315Z 24009KT 26/16 A2996 RMK A01 T02610159  RH  053%=      5-min Rain = 0
KES1 160316Z 23010KT 26/16 A2995 RMK A01 T02610159  RH  054%=      5-min Rain = 0
KES1 160317Z 23006KT 26/16 A2995 RMK A01 T02600159  RH  054%=      5-min Rain = 0
KES1 160318Z 22007KT 26/16 A2995 RMK A01 T02600160  RH  054%=      5-min Rain = 0
KES1 160319Z 23008KT 26/16 A2995 RMK A01 T02590158  RH  054%=      5-min Rain = 0
KES1 160320Z 21008KT 26/16 A2995 RMK A01 T02590158  RH  054%=      5-min Rain = 0
KES1 160321Z 21008KT 26/16 A2995 RMK A01 T02600157  RH  053%=      5-min Rain = 0
KES1 160322Z 21009KT 26/16 A2995 RMK A01 T02610156  RH  052%=      5-min Rain = 0
KES1 160323Z 21008KT 26/15 A2995 RMK A01 T02620154  RH  052%=      5-min Rain = 0
KES1 160324Z 21007KT 26/16 A2995 RMK A01 T02630155  RH  051%=      5-min Rain = 0
KES1 160325Z 20008KT 26/15 A2995 RMK A01 T02630154  RH  051%=      5-min Rain = 0
KES1 160326Z 20009KT 26/15 A2995 RMK A01 T02630153  RH  051%=      5-min Rain = 0
KES1 160327Z 20012KT 26/15 A2995 RMK A01 T02630153  RH  051%=      5-min Rain = 0
KES1 160328Z 19010KT 26/15 A2995 RMK A01 T02640152  RH  050%=      5-min Rain = 0
KES1 160329Z 19009KT 26/15 A2995 RMK A01 T02640152  RH  050%=      5-min Rain = 0
KES1 160330Z 18011KT 27/15 A2995 RMK A01 T02650152  RH  050%=      5-min Rain = 0
KES1 160331Z 19010KT 27/15 A2995 RMK A01 T02650152  RH  050%=      5-min Rain = 0
KES1 160332Z 19009KT 27/15 A2995 RMK A01 T02650152  RH  050%=      5-min Rain = 0
KES1 160333Z 19010KT 27/15 A2995 RMK A01 T02650152  RH  050%=      5-min Rain = 0
KES1 160334Z 18010KT 27/15 A2995 RMK A01 T02660152  RH  050%=      5-min Rain = 0
KES1 160335Z 18009KT 27/15 A2995 RMK A01 T02660151  RH  049%=      5-min Rain = 0
KES1 160336Z 19009KT 27/15 A2995 RMK A01 T02660151  RH  049%=      5-min Rain = 0
KES1 160337Z 19008G13KT 27/15 A2995 RMK A01 T02660151  RH  049%=      5-min Rain = 0
KES1 160338Z 19010KT 27/15 A2995 RMK A01 T02660150  RH  049%=      5-min Rain = 0
KES1 160339Z 19010KT 27/15 A2995 RMK A01 T02670147  RH  048%=      5-min Rain = 0
KES1 160340Z 19010KT 27/15 A2995 RMK A01 T02680147  RH  047%=      5-min Rain = 0
KES1 160341Z 19011KT 27/15 A2995 RMK A01 T02680147  RH  047%=      5-min Rain = 0
KES1 160342Z 19010KT 27/15 A2995 RMK A01 T02690145  RH  046%=      5-min Rain = 0
KES1 160343Z 19010KT 27/14 A2995 RMK A01 T02700144  RH  046%=      5-min Rain = 0
KES1 160344Z 19009KT 27/14 A2995 RMK A01 T02710144  RH  046%=      5-min Rain = 0
KES1 160345Z 19008KT 27/15 A2995 RMK A01 T02710145  RH  046%=      5-min Rain = 0
KES1 160346Z 20009KT 27/14 A2995 RMK A01 T02710144  RH  046%=      5-min Rain = 0
KES1 160347Z 20008KT 27/14 A2995 RMK A01 T02710143  RH  046%=      5-min Rain = 0
KES1 160348Z 19009KT 27/14 A2995 RMK A01 T02710143  RH  045%=      5-min Rain = 0
KES1 160349Z 18009KT 27/14 A2995 RMK A01 T02710142  RH  045%=      5-min Rain = 0
KES1 160350Z 17008KT 27/14 A2995 RMK A01 T02710140  RH  045%=      5-min Rain = 0
KES1 160351Z 18009KT 27/14 A2995 RMK A01 T02720139  RH  044%=      5-min Rain = 0
KES1 160352Z 18008KT 27/14 A2995 RMK A01 T02730138  RH  043%=      5-min Rain = 0
KES1 160353Z 18009KT 27/14 A2995 RMK A01 T02730138  RH  043%=      5-min Rain = 0
KES1 160354Z 18008KT 27/14 A2995 RMK A01 T02740136  RH  043%=      5-min Rain = 0
KES1 160355Z 18008KT 28/14 A2995 RMK A01 T02750135  RH  042%=      5-min Rain = 0
KES1 160356Z 19011KT 28/13 A2995 RMK A01 T02760133  RH  041%=      5-min Rain = 0
KES1 160357Z 18009KT 28/13 A2995 RMK A01 T02770132  RH  041%=      5-min Rain = 0
KES1 160358Z 19010KT 28/13 A2995 RMK A01 T02770131  RH  040%=      5-min Rain = 0
KES1 160359Z 19009KT 28/13 A2994 RMK A01 T02780128  RH  040%=      5-min Rain = 0
KES1 160400Z 19006G11KT 28/13 A2994 RMK A01 T02790127  RH  039%=      5-min Rain = 0
KES1 160401Z 18009KT 28/13 A2995 RMK A01 T02790127  RH  039%=      5-min Rain = 0
KES1 160402Z 17009KT 28/13 A2995 RMK A01 T02800125  RH  038%=      5-min Rain = 0
KES1 160403Z 18008KT 28/12 A2995 RMK A01 T02800123  RH  038%=      5-min Rain = 0
KES1 160404Z 18009KT 28/12 A2995 RMK A01 T02810120  RH  037%=      5-min Rain = 0
KES1 160405Z 18009KT 28/12 A2995 RMK A01 T02810120  RH  037%=      5-min Rain = 0
KES1 160406Z 18009KT 28/12 A2995 RMK A01 T02820118  RH  036%=      5-min Rain = 0
KES1 160407Z 18009KT 28/12 A2995 RMK A01 T02820119  RH  036%=      5-min Rain = 0
KES1 160408Z 18009KT 28/12 A2995 RMK A01 T02820118  RH  036%=      5-min Rain = 0
KES1 160409Z 19010KT 28/12 A2995 RMK A01 T02820118  RH  036%=      5-min Rain = 0
KES1 160410Z 20010KT 28/11 A2995 RMK A01 T02820113  RH  035%=      5-min Rain = 0
KES1 160411Z 20009KT 28/11 A2995 RMK A01 T02830113  RH  035%=      5-min Rain = 0
KES1 160412Z 21007KT 28/11 A2995 RMK A01 T02840112  RH  034%=      5-min Rain = 0
KES1 160413Z 21005KT 28/11 A2995 RMK A01 T02840112  RH  034%=      5-min Rain = 0
KES1 160414Z 20006KT 29/11 A2995 RMK A01 T02850113  RH  034%=      5-min Rain = 0
KES1 160415Z 19007KT 29/11 A2995 RMK A01 T02850112  RH  034%=      5-min Rain = 0
KES1 160416Z 18006KT 28/11 A2995 RMK A01 T02840112  RH  034%=      5-min Rain = 0
KES1 160417Z 18006KT 28/11 A2995 RMK A01 T02840114  RH  035%=      5-min Rain = 0
KES1 160418Z 18006KT 28/11 A2995 RMK A01 T02830113  RH  035%=      5-min Rain = 0
KES1 160419Z 18005KT 28/11 A2995 RMK A01 T02830113  RH  035%=      5-min Rain = 0
KES1 160420Z 18006KT 28/11 A2995 RMK A01 T02820113  RH  035%=      5-min Rain = 0
KES1 160421Z 18006KT 28/11 A2995 RMK A01 T02820112  RH  035%=      5-min Rain = 0
KES1 160422Z 16005KT 28/11 A2995 RMK A01 T02820112  RH  035%=      5-min Rain = 0
KES1 160423Z 16006KT 28/11 A2995 RMK A01 T02820113  RH  035%=      5-min Rain = 0
KES1 160424Z 16006KT 28/11 A2995 RMK A01 T02810113  RH  035%=      5-min Rain = 0
KES1 160425Z 17006KT 28/11 A2994 RMK A01 T02800111  RH  035%=      5-min Rain = 0
KES1 160426Z 16005KT 28/11 A2994 RMK A01 T02800112  RH  035%=      5-min Rain = 0
KES1 160427Z 16006KT 28/11 A2994 RMK A01 T02800113  RH  035%=      5-min Rain = 0
KES1 160428Z 16006KT 28/11 A2994 RMK A01 T02800112  RH  035%=      5-min Rain = 0
KES1 160429Z 17006KT 28/11 A2994 RMK A01 T02790112  RH  035%=      5-min Rain = 0
KES1 160430Z 17005KT 28/11 A2994 RMK A01 T02790113  RH  036%=      5-min Rain = 0
KES1 160431Z 17005KT 28/11 A2994 RMK A01 T02790113  RH  036%=      5-min Rain = 0
KES1 160432Z 17005KT 28/11 A2994 RMK A01 T02780113  RH  036%=      5-min Rain = 0
KES1 160433Z 16005KT 28/11 A2994 RMK A01 T02780114  RH  036%=      5-min Rain = 0
KES1 160434Z 16003KT 28/11 A2994 RMK A01 T02780114  RH  036%=      5-min Rain = 0
KES1 160435Z 16004KT 28/12 A2994 RMK A01 T02770115  RH  036%=      5-min Rain = 0
KES1 160436Z 16004KT 28/11 A2994 RMK A01 T02760114  RH  037%=      5-min Rain = 0
KES1 160437Z 17003KT 28/12 A2995 RMK A01 T02760115  RH  037%=      5-min Rain = 0
KES1 160438Z 18004KT 28/12 A2995 RMK A01 T02750115  RH  037%=      5-min Rain = 0
KES1 160439Z 19004KT 28/12 A2995 RMK A01 T02750115  RH  037%=      5-min Rain = 0
KES1 160440Z 18004KT 27/12 A2995 RMK A01 T02740115  RH  037%=      5-min Rain = 0
KES1 160441Z 18002KT 27/12 A2995 RMK A01 T02740116  RH  037%=      5-min Rain = 0
KES1 160442Z 21002KT 27/12 A2995 RMK A01 T02740115  RH  037%=      5-min Rain = 0
KES1 160443Z 27002KT 27/12 A2995 RMK A01 T02730115  RH  037%=      5-min Rain = 0
KES1 160444Z 29003KT 27/12 A2995 RMK A01 T02730116  RH  038%=      5-min Rain = 0
KES1 160445Z 28003KT 27/12 A2994 RMK A01 T02720116  RH  038%=      5-min Rain = 0
KES1 160446Z 27002KT 27/11 A2995 RMK A01 T02720114  RH  037%=      5-min Rain = 0
KES1 160447Z 29002KT 27/11 A2995 RMK A01 T02720114  RH  037%=      5-min Rain = 0
KES1 160448Z 31002KT 27/12 A2995 RMK A01 T02720115  RH  038%=      5-min Rain = 0
KES1 160449Z 31003KT 27/12 A2995 RMK A01 T02720120  RH  039%=      5-min Rain = 0
KES1 160450Z 32003KT 27/12 A2995 RMK A01 T02700121  RH  040%=      5-min Rain = 0
KES1 160451Z 34004KT 27/12 A2995 RMK A01 T02690122  RH  040%=      5-min Rain = 0
KES1 160452Z 33004KT 27/12 A2995 RMK A01 T02670121  RH  040%=      5-min Rain = 0
KES1 160453Z 32005KT 27/12 A2995 RMK A01 T02650121  RH  041%=      5-min Rain = 0
KES1 160454Z 32005KT 27/12 A2995 RMK A01 T02650121  RH  041%=      5-min Rain = 0
KES1 160455Z 32005KT 26/12 A2995 RMK A01 T02640121  RH  041%=      5-min Rain = 0
KES1 160456Z 31005KT 26/12 A2995 RMK A01 T02630123  RH  042%=      5-min Rain = 0
KES1 160457Z 30004KT 26/12 A2995 RMK A01 T02630123  RH  042%=      5-min Rain = 0
KES1 160458Z 31004KT 26/12 A2995 RMK A01 T02620124  RH  042%=      5-min Rain = 0
KES1 160459Z 32004KT 26/12 A2995 RMK A01 T02600124  RH  043%=      5-min Rain = 0

Page generated in 0.0731 seconds.